<?xml version="1.0" encoding="UTF-8" standalone="no" ?>
<gpx xmlns="http://www.topografix.com/GPX/1/1" xmlns:xsi="http://www.w3.org/2001/XMLSchema-instance" xsi:schemaLocation="http://www.topografix.com/GPX/1/1 http://www.topografix.com/GPX/1/1/gpx.xsd" version="1.1" creator="VisuGPX - https://www.visugpx.com">
  <metadata>
    <name>83 - M - SALERNES</name>
    <desc><![CDATA[SALERNES - La Croix de Solliès - la montagne du Serre]]></desc>
  </metadata>
  <wpt lat="43.54724" lon="6.20362">
    <ele>421</ele>
    <name><![CDATA[Point de passage 1]]></name>
    <type><![CDATA[GENERIC]]></type>
  </wpt>
  <wpt lat="43.54731" lon="6.20354">
    <ele>412</ele>
    <name><![CDATA[Point de passage 2]]></name>
    <type><![CDATA[GENERIC]]></type>
  </wpt>
  <trk>
    <name><![CDATA[Salernes mercredi 11 février]]></name>
    <trkseg>
      <trkpt lat="43.54724" lon="6.20362">
        <ele>421</ele>
        <time>2026-02-11T13:06:44.000Z</time>
      </trkpt>
      <trkpt lat="43.54724" lon="6.20365">
        <ele>417</ele>
        <time>2026-02-11T13:06:47.000Z</time>
      </trkpt>
      <trkpt lat="43.54725" lon="6.20376">
        <ele>416</ele>
        <time>2026-02-11T13:07:59.000Z</time>
      </trkpt>
      <trkpt lat="43.54719" lon="6.20385">
        <ele>412</ele>
        <time>2026-02-11T13:08:08.000Z</time>
      </trkpt>
      <trkpt lat="43.54711" lon="6.20393">
        <ele>414</ele>
        <time>2026-02-11T13:08:26.000Z</time>
      </trkpt>
      <trkpt lat="43.54705" lon="6.20402">
        <ele>414</ele>
        <time>2026-02-11T13:08:38.000Z</time>
      </trkpt>
      <trkpt lat="43.54697" lon="6.2041">
        <ele>414</ele>
        <time>2026-02-11T13:08:53.000Z</time>
      </trkpt>
      <trkpt lat="43.54689" lon="6.20417">
        <ele>415</ele>
        <time>2026-02-11T13:09:02.000Z</time>
      </trkpt>
      <trkpt lat="43.5468" lon="6.20425">
        <ele>415</ele>
        <time>2026-02-11T13:09:17.000Z</time>
      </trkpt>
      <trkpt lat="43.54672" lon="6.20435">
        <ele>416</ele>
        <time>2026-02-11T13:09:29.000Z</time>
      </trkpt>
      <trkpt lat="43.54663" lon="6.20444">
        <ele>417</ele>
        <time>2026-02-11T13:09:44.000Z</time>
      </trkpt>
      <trkpt lat="43.54654" lon="6.20451">
        <ele>419</ele>
        <time>2026-02-11T13:09:53.000Z</time>
      </trkpt>
      <trkpt lat="43.54645" lon="6.20455">
        <ele>420</ele>
        <time>2026-02-11T13:10:11.000Z</time>
      </trkpt>
      <trkpt lat="43.54637" lon="6.20462">
        <ele>422</ele>
        <time>2026-02-11T13:10:23.000Z</time>
      </trkpt>
      <trkpt lat="43.54628" lon="6.2047">
        <ele>423</ele>
        <time>2026-02-11T13:10:35.000Z</time>
      </trkpt>
      <trkpt lat="43.54619" lon="6.20476">
        <ele>425</ele>
        <time>2026-02-11T13:10:47.000Z</time>
      </trkpt>
      <trkpt lat="43.54611" lon="6.20485">
        <ele>425</ele>
        <time>2026-02-11T13:10:59.000Z</time>
      </trkpt>
      <trkpt lat="43.546" lon="6.20491">
        <ele>426</ele>
        <time>2026-02-11T13:11:29.000Z</time>
      </trkpt>
      <trkpt lat="43.5459" lon="6.20499">
        <ele>426</ele>
        <time>2026-02-11T13:11:41.000Z</time>
      </trkpt>
      <trkpt lat="43.5458" lon="6.20508">
        <ele>426</ele>
        <time>2026-02-11T13:11:53.000Z</time>
      </trkpt>
      <trkpt lat="43.54572" lon="6.20518">
        <ele>426</ele>
        <time>2026-02-11T13:12:05.000Z</time>
      </trkpt>
      <trkpt lat="43.54563" lon="6.20523">
        <ele>427</ele>
        <time>2026-02-11T13:12:20.000Z</time>
      </trkpt>
      <trkpt lat="43.54554" lon="6.20531">
        <ele>428</ele>
        <time>2026-02-11T13:12:29.000Z</time>
      </trkpt>
      <trkpt lat="43.54544" lon="6.20539">
        <ele>429</ele>
        <time>2026-02-11T13:12:41.000Z</time>
      </trkpt>
      <trkpt lat="43.54536" lon="6.20545">
        <ele>431</ele>
        <time>2026-02-11T13:12:50.000Z</time>
      </trkpt>
      <trkpt lat="43.54526" lon="6.20544">
        <ele>432</ele>
        <time>2026-02-11T13:13:02.000Z</time>
      </trkpt>
      <trkpt lat="43.54517" lon="6.20544">
        <ele>433</ele>
        <time>2026-02-11T13:13:08.000Z</time>
      </trkpt>
      <trkpt lat="43.54508" lon="6.20547">
        <ele>433</ele>
        <time>2026-02-11T13:13:20.000Z</time>
      </trkpt>
      <trkpt lat="43.54501" lon="6.20554">
        <ele>434</ele>
        <time>2026-02-11T13:13:41.000Z</time>
      </trkpt>
      <trkpt lat="43.54498" lon="6.20566">
        <ele>434</ele>
        <time>2026-02-11T13:13:50.000Z</time>
      </trkpt>
      <trkpt lat="43.54497" lon="6.20579">
        <ele>434</ele>
        <time>2026-02-11T13:13:59.000Z</time>
      </trkpt>
      <trkpt lat="43.54496" lon="6.20592">
        <ele>434</ele>
        <time>2026-02-11T13:14:08.000Z</time>
      </trkpt>
      <trkpt lat="43.54495" lon="6.20605">
        <ele>433</ele>
        <time>2026-02-11T13:14:20.000Z</time>
      </trkpt>
      <trkpt lat="43.54494" lon="6.2062">
        <ele>433</ele>
        <time>2026-02-11T13:14:29.000Z</time>
      </trkpt>
      <trkpt lat="43.54493" lon="6.20633">
        <ele>432</ele>
        <time>2026-02-11T13:14:50.000Z</time>
      </trkpt>
      <trkpt lat="43.54491" lon="6.20645">
        <ele>432</ele>
        <time>2026-02-11T13:15:20.000Z</time>
      </trkpt>
      <trkpt lat="43.54487" lon="6.2066">
        <ele>432</ele>
        <time>2026-02-11T13:15:32.000Z</time>
      </trkpt>
      <trkpt lat="43.54483" lon="6.20672">
        <ele>432</ele>
        <time>2026-02-11T13:15:41.000Z</time>
      </trkpt>
      <trkpt lat="43.54478" lon="6.20684">
        <ele>432</ele>
        <time>2026-02-11T13:15:50.000Z</time>
      </trkpt>
      <trkpt lat="43.54479" lon="6.20697">
        <ele>431</ele>
        <time>2026-02-11T13:15:59.000Z</time>
      </trkpt>
      <trkpt lat="43.5448" lon="6.20713">
        <ele>431</ele>
        <time>2026-02-11T13:16:08.000Z</time>
      </trkpt>
      <trkpt lat="43.54479" lon="6.20729">
        <ele>431</ele>
        <time>2026-02-11T13:16:17.000Z</time>
      </trkpt>
      <trkpt lat="43.54479" lon="6.20745">
        <ele>432</ele>
        <time>2026-02-11T13:16:26.000Z</time>
      </trkpt>
      <trkpt lat="43.5448" lon="6.20759">
        <ele>433</ele>
        <time>2026-02-11T13:16:35.000Z</time>
      </trkpt>
      <trkpt lat="43.54482" lon="6.20771">
        <ele>433</ele>
        <time>2026-02-11T13:16:44.000Z</time>
      </trkpt>
      <trkpt lat="43.54486" lon="6.20784">
        <ele>434</ele>
        <time>2026-02-11T13:17:50.000Z</time>
      </trkpt>
      <trkpt lat="43.54488" lon="6.20798">
        <ele>434</ele>
        <time>2026-02-11T13:18:02.000Z</time>
      </trkpt>
      <trkpt lat="43.5449" lon="6.20812">
        <ele>434</ele>
        <time>2026-02-11T13:18:14.000Z</time>
      </trkpt>
      <trkpt lat="43.54491" lon="6.20825">
        <ele>434</ele>
        <time>2026-02-11T13:18:26.000Z</time>
      </trkpt>
      <trkpt lat="43.54489" lon="6.20838">
        <ele>434</ele>
        <time>2026-02-11T13:18:35.000Z</time>
      </trkpt>
      <trkpt lat="43.54487" lon="6.20851">
        <ele>435</ele>
        <time>2026-02-11T13:18:44.000Z</time>
      </trkpt>
      <trkpt lat="43.54486" lon="6.20864">
        <ele>436</ele>
        <time>2026-02-11T13:18:56.000Z</time>
      </trkpt>
      <trkpt lat="43.54485" lon="6.20878">
        <ele>437</ele>
        <time>2026-02-11T13:19:08.000Z</time>
      </trkpt>
      <trkpt lat="43.54487" lon="6.2089">
        <ele>439</ele>
        <time>2026-02-11T13:19:17.000Z</time>
      </trkpt>
      <trkpt lat="43.54488" lon="6.20904">
        <ele>440</ele>
        <time>2026-02-11T13:19:29.000Z</time>
      </trkpt>
      <trkpt lat="43.54487" lon="6.20919">
        <ele>442</ele>
        <time>2026-02-11T13:19:41.000Z</time>
      </trkpt>
      <trkpt lat="43.54483" lon="6.2093">
        <ele>443</ele>
        <time>2026-02-11T13:19:50.000Z</time>
      </trkpt>
      <trkpt lat="43.54477" lon="6.20939">
        <ele>444</ele>
        <time>2026-02-11T13:20:02.000Z</time>
      </trkpt>
      <trkpt lat="43.54468" lon="6.20949">
        <ele>445</ele>
        <time>2026-02-11T13:20:14.000Z</time>
      </trkpt>
      <trkpt lat="43.54458" lon="6.20958">
        <ele>446</ele>
        <time>2026-02-11T13:20:26.000Z</time>
      </trkpt>
      <trkpt lat="43.54451" lon="6.20966">
        <ele>447</ele>
        <time>2026-02-11T13:20:35.000Z</time>
      </trkpt>
      <trkpt lat="43.54441" lon="6.20974">
        <ele>447</ele>
        <time>2026-02-11T13:20:44.000Z</time>
      </trkpt>
      <trkpt lat="43.54431" lon="6.20979">
        <ele>447</ele>
        <time>2026-02-11T13:20:53.000Z</time>
      </trkpt>
      <trkpt lat="43.54422" lon="6.20983">
        <ele>448</ele>
        <time>2026-02-11T13:21:05.000Z</time>
      </trkpt>
      <trkpt lat="43.54412" lon="6.20983">
        <ele>448</ele>
        <time>2026-02-11T13:21:14.000Z</time>
      </trkpt>
      <trkpt lat="43.54402" lon="6.2098">
        <ele>448</ele>
        <time>2026-02-11T13:21:23.000Z</time>
      </trkpt>
      <trkpt lat="43.5439" lon="6.20977">
        <ele>448</ele>
        <time>2026-02-11T13:21:32.000Z</time>
      </trkpt>
      <trkpt lat="43.5438" lon="6.20977">
        <ele>448</ele>
        <time>2026-02-11T13:21:41.000Z</time>
      </trkpt>
      <trkpt lat="43.54371" lon="6.20979">
        <ele>448</ele>
        <time>2026-02-11T13:21:50.000Z</time>
      </trkpt>
      <trkpt lat="43.54362" lon="6.20985">
        <ele>448</ele>
        <time>2026-02-11T13:21:59.000Z</time>
      </trkpt>
      <trkpt lat="43.54352" lon="6.20991">
        <ele>448</ele>
        <time>2026-02-11T13:22:08.000Z</time>
      </trkpt>
      <trkpt lat="43.54343" lon="6.20997">
        <ele>448</ele>
        <time>2026-02-11T13:22:17.000Z</time>
      </trkpt>
      <trkpt lat="43.54335" lon="6.21003">
        <ele>447</ele>
        <time>2026-02-11T13:22:26.000Z</time>
      </trkpt>
      <trkpt lat="43.54327" lon="6.2101">
        <ele>446</ele>
        <time>2026-02-11T13:22:35.000Z</time>
      </trkpt>
      <trkpt lat="43.54319" lon="6.21019">
        <ele>445</ele>
        <time>2026-02-11T13:22:44.000Z</time>
      </trkpt>
      <trkpt lat="43.54311" lon="6.21031">
        <ele>445</ele>
        <time>2026-02-11T13:22:56.000Z</time>
      </trkpt>
      <trkpt lat="43.54305" lon="6.21042">
        <ele>444</ele>
        <time>2026-02-11T13:23:05.000Z</time>
      </trkpt>
      <trkpt lat="43.54299" lon="6.21053">
        <ele>444</ele>
        <time>2026-02-11T13:23:14.000Z</time>
      </trkpt>
      <trkpt lat="43.54294" lon="6.21064">
        <ele>443</ele>
        <time>2026-02-11T13:23:23.000Z</time>
      </trkpt>
      <trkpt lat="43.54289" lon="6.21077">
        <ele>443</ele>
        <time>2026-02-11T13:23:50.000Z</time>
      </trkpt>
      <trkpt lat="43.54283" lon="6.21089">
        <ele>442</ele>
        <time>2026-02-11T13:26:50.000Z</time>
      </trkpt>
      <trkpt lat="43.54278" lon="6.211">
        <ele>442</ele>
        <time>2026-02-11T13:27:02.000Z</time>
      </trkpt>
      <trkpt lat="43.54274" lon="6.21112">
        <ele>441</ele>
        <time>2026-02-11T13:27:11.000Z</time>
      </trkpt>
      <trkpt lat="43.54267" lon="6.21123">
        <ele>441</ele>
        <time>2026-02-11T13:27:20.000Z</time>
      </trkpt>
      <trkpt lat="43.54261" lon="6.21136">
        <ele>441</ele>
        <time>2026-02-11T13:27:32.000Z</time>
      </trkpt>
      <trkpt lat="43.54256" lon="6.21149">
        <ele>440</ele>
        <time>2026-02-11T13:27:41.000Z</time>
      </trkpt>
      <trkpt lat="43.54251" lon="6.21162">
        <ele>439</ele>
        <time>2026-02-11T13:27:50.000Z</time>
      </trkpt>
      <trkpt lat="43.54247" lon="6.21174">
        <ele>439</ele>
        <time>2026-02-11T13:27:59.000Z</time>
      </trkpt>
      <trkpt lat="43.54243" lon="6.21189">
        <ele>438</ele>
        <time>2026-02-11T13:28:11.000Z</time>
      </trkpt>
      <trkpt lat="43.54239" lon="6.21203">
        <ele>438</ele>
        <time>2026-02-11T13:28:20.000Z</time>
      </trkpt>
      <trkpt lat="43.54234" lon="6.21217">
        <ele>437</ele>
        <time>2026-02-11T13:28:29.000Z</time>
      </trkpt>
      <trkpt lat="43.54229" lon="6.2123">
        <ele>437</ele>
        <time>2026-02-11T13:28:38.000Z</time>
      </trkpt>
      <trkpt lat="43.54223" lon="6.21241">
        <ele>436</ele>
        <time>2026-02-11T13:28:47.000Z</time>
      </trkpt>
      <trkpt lat="43.54219" lon="6.21252">
        <ele>435</ele>
        <time>2026-02-11T13:28:56.000Z</time>
      </trkpt>
      <trkpt lat="43.54215" lon="6.21265">
        <ele>434</ele>
        <time>2026-02-11T13:29:05.000Z</time>
      </trkpt>
      <trkpt lat="43.54211" lon="6.21278">
        <ele>434</ele>
        <time>2026-02-11T13:29:14.000Z</time>
      </trkpt>
      <trkpt lat="43.5421" lon="6.21293">
        <ele>433</ele>
        <time>2026-02-11T13:29:23.000Z</time>
      </trkpt>
      <trkpt lat="43.54207" lon="6.21306">
        <ele>433</ele>
        <time>2026-02-11T13:29:32.000Z</time>
      </trkpt>
      <trkpt lat="43.54204" lon="6.21318">
        <ele>433</ele>
        <time>2026-02-11T13:29:41.000Z</time>
      </trkpt>
      <trkpt lat="43.54202" lon="6.21331">
        <ele>433</ele>
        <time>2026-02-11T13:29:50.000Z</time>
      </trkpt>
      <trkpt lat="43.54202" lon="6.21346">
        <ele>433</ele>
        <time>2026-02-11T13:30:02.000Z</time>
      </trkpt>
      <trkpt lat="43.542" lon="6.2136">
        <ele>433</ele>
        <time>2026-02-11T13:30:11.000Z</time>
      </trkpt>
      <trkpt lat="43.54197" lon="6.21375">
        <ele>433</ele>
        <time>2026-02-11T13:30:20.000Z</time>
      </trkpt>
      <trkpt lat="43.54195" lon="6.21389">
        <ele>434</ele>
        <time>2026-02-11T13:30:29.000Z</time>
      </trkpt>
      <trkpt lat="43.54195" lon="6.21403">
        <ele>434</ele>
        <time>2026-02-11T13:30:38.000Z</time>
      </trkpt>
      <trkpt lat="43.54194" lon="6.21417">
        <ele>435</ele>
        <time>2026-02-11T13:30:47.000Z</time>
      </trkpt>
      <trkpt lat="43.54194" lon="6.21431">
        <ele>435</ele>
        <time>2026-02-11T13:30:56.000Z</time>
      </trkpt>
      <trkpt lat="43.54195" lon="6.21443">
        <ele>435</ele>
        <time>2026-02-11T13:31:05.000Z</time>
      </trkpt>
      <trkpt lat="43.54196" lon="6.21458">
        <ele>435</ele>
        <time>2026-02-11T13:31:14.000Z</time>
      </trkpt>
      <trkpt lat="43.54196" lon="6.21472">
        <ele>435</ele>
        <time>2026-02-11T13:31:23.000Z</time>
      </trkpt>
      <trkpt lat="43.54197" lon="6.21488">
        <ele>435</ele>
        <time>2026-02-11T13:31:32.000Z</time>
      </trkpt>
      <trkpt lat="43.54199" lon="6.21503">
        <ele>435</ele>
        <time>2026-02-11T13:31:44.000Z</time>
      </trkpt>
      <trkpt lat="43.542" lon="6.21517">
        <ele>435</ele>
        <time>2026-02-11T13:31:53.000Z</time>
      </trkpt>
      <trkpt lat="43.54202" lon="6.21531">
        <ele>434</ele>
        <time>2026-02-11T13:32:02.000Z</time>
      </trkpt>
      <trkpt lat="43.54202" lon="6.21544">
        <ele>434</ele>
        <time>2026-02-11T13:32:11.000Z</time>
      </trkpt>
      <trkpt lat="43.54203" lon="6.21557">
        <ele>434</ele>
        <time>2026-02-11T13:32:20.000Z</time>
      </trkpt>
      <trkpt lat="43.54203" lon="6.21572">
        <ele>434</ele>
        <time>2026-02-11T13:32:29.000Z</time>
      </trkpt>
      <trkpt lat="43.54204" lon="6.21586">
        <ele>434</ele>
        <time>2026-02-11T13:32:38.000Z</time>
      </trkpt>
      <trkpt lat="43.54206" lon="6.21601">
        <ele>434</ele>
        <time>2026-02-11T13:32:50.000Z</time>
      </trkpt>
      <trkpt lat="43.54208" lon="6.21616">
        <ele>433</ele>
        <time>2026-02-11T13:32:59.000Z</time>
      </trkpt>
      <trkpt lat="43.54208" lon="6.2163">
        <ele>433</ele>
        <time>2026-02-11T13:33:08.000Z</time>
      </trkpt>
      <trkpt lat="43.54209" lon="6.21645">
        <ele>432</ele>
        <time>2026-02-11T13:33:17.000Z</time>
      </trkpt>
      <trkpt lat="43.5421" lon="6.21659">
        <ele>431</ele>
        <time>2026-02-11T13:33:26.000Z</time>
      </trkpt>
      <trkpt lat="43.5421" lon="6.21674">
        <ele>430</ele>
        <time>2026-02-11T13:33:38.000Z</time>
      </trkpt>
      <trkpt lat="43.54209" lon="6.2169">
        <ele>428</ele>
        <time>2026-02-11T13:33:47.000Z</time>
      </trkpt>
      <trkpt lat="43.54207" lon="6.21703">
        <ele>427</ele>
        <time>2026-02-11T13:33:56.000Z</time>
      </trkpt>
      <trkpt lat="43.54205" lon="6.21716">
        <ele>425</ele>
        <time>2026-02-11T13:34:05.000Z</time>
      </trkpt>
      <trkpt lat="43.54204" lon="6.2173">
        <ele>424</ele>
        <time>2026-02-11T13:34:14.000Z</time>
      </trkpt>
      <trkpt lat="43.54202" lon="6.21743">
        <ele>423</ele>
        <time>2026-02-11T13:34:26.000Z</time>
      </trkpt>
      <trkpt lat="43.54201" lon="6.21757">
        <ele>422</ele>
        <time>2026-02-11T13:34:38.000Z</time>
      </trkpt>
      <trkpt lat="43.54202" lon="6.21772">
        <ele>421</ele>
        <time>2026-02-11T13:34:56.000Z</time>
      </trkpt>
      <trkpt lat="43.54205" lon="6.21786">
        <ele>420</ele>
        <time>2026-02-11T13:35:05.000Z</time>
      </trkpt>
      <trkpt lat="43.5421" lon="6.21798">
        <ele>419</ele>
        <time>2026-02-11T13:35:14.000Z</time>
      </trkpt>
      <trkpt lat="43.54216" lon="6.2181">
        <ele>418</ele>
        <time>2026-02-11T13:35:23.000Z</time>
      </trkpt>
      <trkpt lat="43.54222" lon="6.2182">
        <ele>418</ele>
        <time>2026-02-11T13:35:32.000Z</time>
      </trkpt>
      <trkpt lat="43.54227" lon="6.21834">
        <ele>417</ele>
        <time>2026-02-11T13:35:41.000Z</time>
      </trkpt>
      <trkpt lat="43.54231" lon="6.21849">
        <ele>417</ele>
        <time>2026-02-11T13:35:50.000Z</time>
      </trkpt>
      <trkpt lat="43.54233" lon="6.21864">
        <ele>417</ele>
        <time>2026-02-11T13:36:02.000Z</time>
      </trkpt>
      <trkpt lat="43.54236" lon="6.21876">
        <ele>417</ele>
        <time>2026-02-11T13:36:11.000Z</time>
      </trkpt>
      <trkpt lat="43.54243" lon="6.21886">
        <ele>418</ele>
        <time>2026-02-11T13:36:20.000Z</time>
      </trkpt>
      <trkpt lat="43.54252" lon="6.21891">
        <ele>418</ele>
        <time>2026-02-11T13:36:29.000Z</time>
      </trkpt>
      <trkpt lat="43.54261" lon="6.21896">
        <ele>419</ele>
        <time>2026-02-11T13:36:38.000Z</time>
      </trkpt>
      <trkpt lat="43.5427" lon="6.21901">
        <ele>419</ele>
        <time>2026-02-11T13:36:47.000Z</time>
      </trkpt>
      <trkpt lat="43.54279" lon="6.21904">
        <ele>419</ele>
        <time>2026-02-11T13:36:56.000Z</time>
      </trkpt>
      <trkpt lat="43.54288" lon="6.21909">
        <ele>419</ele>
        <time>2026-02-11T13:37:05.000Z</time>
      </trkpt>
      <trkpt lat="43.54298" lon="6.21914">
        <ele>420</ele>
        <time>2026-02-11T13:37:14.000Z</time>
      </trkpt>
      <trkpt lat="43.54307" lon="6.21919">
        <ele>420</ele>
        <time>2026-02-11T13:37:23.000Z</time>
      </trkpt>
      <trkpt lat="43.54314" lon="6.21923">
        <ele>421</ele>
        <time>2026-02-11T13:37:32.000Z</time>
      </trkpt>
      <trkpt lat="43.54321" lon="6.21916">
        <ele>421</ele>
        <time>2026-02-11T13:41:53.000Z</time>
      </trkpt>
      <trkpt lat="43.54329" lon="6.21905">
        <ele>422</ele>
        <time>2026-02-11T13:42:05.000Z</time>
      </trkpt>
      <trkpt lat="43.54335" lon="6.21893">
        <ele>422</ele>
        <time>2026-02-11T13:42:20.000Z</time>
      </trkpt>
      <trkpt lat="43.54343" lon="6.21882">
        <ele>423</ele>
        <time>2026-02-11T13:42:30.000Z</time>
      </trkpt>
      <trkpt lat="43.5435" lon="6.2187">
        <ele>424</ele>
        <time>2026-02-11T13:42:41.000Z</time>
      </trkpt>
      <trkpt lat="43.54357" lon="6.2186">
        <ele>424</ele>
        <time>2026-02-11T13:42:50.000Z</time>
      </trkpt>
      <trkpt lat="43.54363" lon="6.21851">
        <ele>425</ele>
        <time>2026-02-11T13:42:59.000Z</time>
      </trkpt>
      <trkpt lat="43.54369" lon="6.21841">
        <ele>426</ele>
        <time>2026-02-11T13:43:08.000Z</time>
      </trkpt>
      <trkpt lat="43.54377" lon="6.2183">
        <ele>426</ele>
        <time>2026-02-11T13:43:20.000Z</time>
      </trkpt>
      <trkpt lat="43.54383" lon="6.21821">
        <ele>427</ele>
        <time>2026-02-11T13:43:26.000Z</time>
      </trkpt>
      <trkpt lat="43.54388" lon="6.21811">
        <ele>427</ele>
        <time>2026-02-11T13:43:35.000Z</time>
      </trkpt>
      <trkpt lat="43.54393" lon="6.21801">
        <ele>428</ele>
        <time>2026-02-11T13:43:44.000Z</time>
      </trkpt>
      <trkpt lat="43.54398" lon="6.2179">
        <ele>428</ele>
        <time>2026-02-11T13:43:53.000Z</time>
      </trkpt>
      <trkpt lat="43.54403" lon="6.21778">
        <ele>428</ele>
        <time>2026-02-11T13:44:02.000Z</time>
      </trkpt>
      <trkpt lat="43.54409" lon="6.21767">
        <ele>428</ele>
        <time>2026-02-11T13:44:11.000Z</time>
      </trkpt>
      <trkpt lat="43.54416" lon="6.21756">
        <ele>429</ele>
        <time>2026-02-11T13:44:20.000Z</time>
      </trkpt>
      <trkpt lat="43.54421" lon="6.21746">
        <ele>429</ele>
        <time>2026-02-11T13:44:29.000Z</time>
      </trkpt>
      <trkpt lat="43.54423" lon="6.21734">
        <ele>429</ele>
        <time>2026-02-11T13:44:38.000Z</time>
      </trkpt>
      <trkpt lat="43.54429" lon="6.21725">
        <ele>429</ele>
        <time>2026-02-11T13:44:47.000Z</time>
      </trkpt>
      <trkpt lat="43.54434" lon="6.21734">
        <ele>428</ele>
        <time>2026-02-11T13:46:32.000Z</time>
      </trkpt>
      <trkpt lat="43.54436" lon="6.21746">
        <ele>426</ele>
        <time>2026-02-11T13:46:47.000Z</time>
      </trkpt>
      <trkpt lat="43.54437" lon="6.21759">
        <ele>425</ele>
        <time>2026-02-11T13:47:02.000Z</time>
      </trkpt>
      <trkpt lat="43.54437" lon="6.21771">
        <ele>424</ele>
        <time>2026-02-11T13:47:20.000Z</time>
      </trkpt>
      <trkpt lat="43.54441" lon="6.21782">
        <ele>422</ele>
        <time>2026-02-11T13:47:35.000Z</time>
      </trkpt>
      <trkpt lat="43.54442" lon="6.21795">
        <ele>421</ele>
        <time>2026-02-11T13:47:47.000Z</time>
      </trkpt>
      <trkpt lat="43.54441" lon="6.21808">
        <ele>420</ele>
        <time>2026-02-11T13:47:59.000Z</time>
      </trkpt>
      <trkpt lat="43.54441" lon="6.21821">
        <ele>419</ele>
        <time>2026-02-11T13:48:11.000Z</time>
      </trkpt>
      <trkpt lat="43.54443" lon="6.21834">
        <ele>417</ele>
        <time>2026-02-11T13:48:26.000Z</time>
      </trkpt>
      <trkpt lat="43.54445" lon="6.21847">
        <ele>415</ele>
        <time>2026-02-11T13:48:47.000Z</time>
      </trkpt>
      <trkpt lat="43.54447" lon="6.2186">
        <ele>413</ele>
        <time>2026-02-11T13:49:02.000Z</time>
      </trkpt>
      <trkpt lat="43.5445" lon="6.21873">
        <ele>411</ele>
        <time>2026-02-11T13:49:20.000Z</time>
      </trkpt>
      <trkpt lat="43.54449" lon="6.21887">
        <ele>410</ele>
        <time>2026-02-11T13:49:35.000Z</time>
      </trkpt>
      <trkpt lat="43.54451" lon="6.219">
        <ele>408</ele>
        <time>2026-02-11T13:49:50.000Z</time>
      </trkpt>
      <trkpt lat="43.54452" lon="6.21913">
        <ele>406</ele>
        <time>2026-02-11T13:50:02.000Z</time>
      </trkpt>
      <trkpt lat="43.5445" lon="6.21928">
        <ele>404</ele>
        <time>2026-02-11T13:50:20.000Z</time>
      </trkpt>
      <trkpt lat="43.5445" lon="6.21941">
        <ele>402</ele>
        <time>2026-02-11T13:50:38.000Z</time>
      </trkpt>
      <trkpt lat="43.54454" lon="6.21952">
        <ele>400</ele>
        <time>2026-02-11T13:50:50.000Z</time>
      </trkpt>
      <trkpt lat="43.54461" lon="6.21961">
        <ele>398</ele>
        <time>2026-02-11T13:51:02.000Z</time>
      </trkpt>
      <trkpt lat="43.54468" lon="6.21966">
        <ele>396</ele>
        <time>2026-02-11T13:51:14.000Z</time>
      </trkpt>
      <trkpt lat="43.54477" lon="6.2197">
        <ele>394</ele>
        <time>2026-02-11T13:51:29.000Z</time>
      </trkpt>
      <trkpt lat="43.54484" lon="6.21978">
        <ele>393</ele>
        <time>2026-02-11T13:51:44.000Z</time>
      </trkpt>
      <trkpt lat="43.54491" lon="6.21987">
        <ele>392</ele>
        <time>2026-02-11T13:52:02.000Z</time>
      </trkpt>
      <trkpt lat="43.54498" lon="6.21998">
        <ele>390</ele>
        <time>2026-02-11T13:52:14.000Z</time>
      </trkpt>
      <trkpt lat="43.54503" lon="6.22011">
        <ele>389</ele>
        <time>2026-02-11T13:52:26.000Z</time>
      </trkpt>
      <trkpt lat="43.54509" lon="6.22022">
        <ele>388</ele>
        <time>2026-02-11T13:52:41.000Z</time>
      </trkpt>
      <trkpt lat="43.54513" lon="6.22033">
        <ele>386</ele>
        <time>2026-02-11T13:52:53.000Z</time>
      </trkpt>
      <trkpt lat="43.54518" lon="6.22043">
        <ele>384</ele>
        <time>2026-02-11T13:53:08.000Z</time>
      </trkpt>
      <trkpt lat="43.54522" lon="6.22056">
        <ele>382</ele>
        <time>2026-02-11T13:53:23.000Z</time>
      </trkpt>
      <trkpt lat="43.54524" lon="6.22069">
        <ele>380</ele>
        <time>2026-02-11T13:53:35.000Z</time>
      </trkpt>
      <trkpt lat="43.54527" lon="6.22081">
        <ele>379</ele>
        <time>2026-02-11T13:53:47.000Z</time>
      </trkpt>
      <trkpt lat="43.54531" lon="6.22093">
        <ele>377</ele>
        <time>2026-02-11T13:53:59.000Z</time>
      </trkpt>
      <trkpt lat="43.54533" lon="6.22106">
        <ele>375</ele>
        <time>2026-02-11T13:54:08.000Z</time>
      </trkpt>
      <trkpt lat="43.54536" lon="6.2212">
        <ele>374</ele>
        <time>2026-02-11T13:54:20.000Z</time>
      </trkpt>
      <trkpt lat="43.54541" lon="6.22133">
        <ele>373</ele>
        <time>2026-02-11T13:54:32.000Z</time>
      </trkpt>
      <trkpt lat="43.54543" lon="6.22146">
        <ele>372</ele>
        <time>2026-02-11T13:54:41.000Z</time>
      </trkpt>
      <trkpt lat="43.54545" lon="6.22158">
        <ele>371</ele>
        <time>2026-02-11T13:54:53.000Z</time>
      </trkpt>
      <trkpt lat="43.54547" lon="6.22171">
        <ele>369</ele>
        <time>2026-02-11T13:55:29.000Z</time>
      </trkpt>
      <trkpt lat="43.54551" lon="6.22185">
        <ele>368</ele>
        <time>2026-02-11T13:56:38.000Z</time>
      </trkpt>
      <trkpt lat="43.54553" lon="6.22198">
        <ele>366</ele>
        <time>2026-02-11T13:56:50.000Z</time>
      </trkpt>
      <trkpt lat="43.54555" lon="6.2221">
        <ele>365</ele>
        <time>2026-02-11T13:57:02.000Z</time>
      </trkpt>
      <trkpt lat="43.54559" lon="6.22223">
        <ele>364</ele>
        <time>2026-02-11T13:57:17.000Z</time>
      </trkpt>
      <trkpt lat="43.54558" lon="6.22237">
        <ele>362</ele>
        <time>2026-02-11T13:57:29.000Z</time>
      </trkpt>
      <trkpt lat="43.54557" lon="6.22251">
        <ele>360</ele>
        <time>2026-02-11T13:57:41.000Z</time>
      </trkpt>
      <trkpt lat="43.54558" lon="6.22264">
        <ele>358</ele>
        <time>2026-02-11T13:57:56.000Z</time>
      </trkpt>
      <trkpt lat="43.54555" lon="6.22275">
        <ele>356</ele>
        <time>2026-02-11T13:58:11.000Z</time>
      </trkpt>
      <trkpt lat="43.54552" lon="6.22288">
        <ele>355</ele>
        <time>2026-02-11T13:58:29.000Z</time>
      </trkpt>
      <trkpt lat="43.54549" lon="6.22302">
        <ele>353</ele>
        <time>2026-02-11T13:58:44.000Z</time>
      </trkpt>
      <trkpt lat="43.54545" lon="6.22313">
        <ele>352</ele>
        <time>2026-02-11T13:58:53.000Z</time>
      </trkpt>
      <trkpt lat="43.54544" lon="6.22329">
        <ele>351</ele>
        <time>2026-02-11T13:59:05.000Z</time>
      </trkpt>
      <trkpt lat="43.54547" lon="6.22343">
        <ele>350</ele>
        <time>2026-02-11T13:59:14.000Z</time>
      </trkpt>
      <trkpt lat="43.54553" lon="6.22356">
        <ele>349</ele>
        <time>2026-02-11T13:59:26.000Z</time>
      </trkpt>
      <trkpt lat="43.54563" lon="6.22362">
        <ele>349</ele>
        <time>2026-02-11T13:59:38.000Z</time>
      </trkpt>
      <trkpt lat="43.54572" lon="6.22363">
        <ele>349</ele>
        <time>2026-02-11T13:59:50.000Z</time>
      </trkpt>
      <trkpt lat="43.54582" lon="6.22367">
        <ele>349</ele>
        <time>2026-02-11T14:00:11.000Z</time>
      </trkpt>
      <trkpt lat="43.5459" lon="6.2237">
        <ele>349</ele>
        <time>2026-02-11T14:00:32.000Z</time>
      </trkpt>
      <trkpt lat="43.54595" lon="6.22383">
        <ele>349</ele>
        <time>2026-02-11T14:02:17.000Z</time>
      </trkpt>
      <trkpt lat="43.54597" lon="6.22396">
        <ele>349</ele>
        <time>2026-02-11T14:02:26.000Z</time>
      </trkpt>
      <trkpt lat="43.546" lon="6.22408">
        <ele>349</ele>
        <time>2026-02-11T14:02:35.000Z</time>
      </trkpt>
      <trkpt lat="43.54605" lon="6.2242">
        <ele>348</ele>
        <time>2026-02-11T14:02:44.000Z</time>
      </trkpt>
      <trkpt lat="43.54609" lon="6.22431">
        <ele>347</ele>
        <time>2026-02-11T14:03:11.000Z</time>
      </trkpt>
      <trkpt lat="43.5461" lon="6.22443">
        <ele>346</ele>
        <time>2026-02-11T14:04:05.000Z</time>
      </trkpt>
      <trkpt lat="43.54614" lon="6.22454">
        <ele>345</ele>
        <time>2026-02-11T14:04:32.000Z</time>
      </trkpt>
      <trkpt lat="43.54617" lon="6.22466">
        <ele>344</ele>
        <time>2026-02-11T14:04:41.000Z</time>
      </trkpt>
      <trkpt lat="43.5462" lon="6.22477">
        <ele>343</ele>
        <time>2026-02-11T14:04:50.000Z</time>
      </trkpt>
      <trkpt lat="43.54623" lon="6.2249">
        <ele>342</ele>
        <time>2026-02-11T14:04:59.000Z</time>
      </trkpt>
      <trkpt lat="43.54626" lon="6.22503">
        <ele>341</ele>
        <time>2026-02-11T14:05:11.000Z</time>
      </trkpt>
      <trkpt lat="43.5463" lon="6.22517">
        <ele>339</ele>
        <time>2026-02-11T14:05:23.000Z</time>
      </trkpt>
      <trkpt lat="43.54633" lon="6.2253">
        <ele>338</ele>
        <time>2026-02-11T14:05:35.000Z</time>
      </trkpt>
      <trkpt lat="43.54637" lon="6.22544">
        <ele>337</ele>
        <time>2026-02-11T14:05:47.000Z</time>
      </trkpt>
      <trkpt lat="43.5464" lon="6.22557">
        <ele>335</ele>
        <time>2026-02-11T14:06:02.000Z</time>
      </trkpt>
      <trkpt lat="43.54644" lon="6.22569">
        <ele>333</ele>
        <time>2026-02-11T14:06:17.000Z</time>
      </trkpt>
      <trkpt lat="43.54647" lon="6.22583">
        <ele>331</ele>
        <time>2026-02-11T14:06:32.000Z</time>
      </trkpt>
      <trkpt lat="43.54649" lon="6.22596">
        <ele>328</ele>
        <time>2026-02-11T14:06:41.000Z</time>
      </trkpt>
      <trkpt lat="43.54648" lon="6.2261">
        <ele>326</ele>
        <time>2026-02-11T14:06:56.000Z</time>
      </trkpt>
      <trkpt lat="43.54644" lon="6.22622">
        <ele>323</ele>
        <time>2026-02-11T14:07:08.000Z</time>
      </trkpt>
      <trkpt lat="43.54645" lon="6.22634">
        <ele>321</ele>
        <time>2026-02-11T14:07:20.000Z</time>
      </trkpt>
      <trkpt lat="43.54647" lon="6.22648">
        <ele>318</ele>
        <time>2026-02-11T14:07:32.000Z</time>
      </trkpt>
      <trkpt lat="43.54651" lon="6.22658">
        <ele>316</ele>
        <time>2026-02-11T14:07:50.000Z</time>
      </trkpt>
      <trkpt lat="43.54659" lon="6.22661">
        <ele>314</ele>
        <time>2026-02-11T14:08:08.000Z</time>
      </trkpt>
      <trkpt lat="43.54661" lon="6.22675">
        <ele>313</ele>
        <time>2026-02-11T14:08:26.000Z</time>
      </trkpt>
      <trkpt lat="43.54663" lon="6.22689">
        <ele>311</ele>
        <time>2026-02-11T14:08:38.000Z</time>
      </trkpt>
      <trkpt lat="43.54662" lon="6.22702">
        <ele>310</ele>
        <time>2026-02-11T14:08:50.000Z</time>
      </trkpt>
      <trkpt lat="43.54659" lon="6.22717">
        <ele>308</ele>
        <time>2026-02-11T14:09:02.000Z</time>
      </trkpt>
      <trkpt lat="43.54664" lon="6.22727">
        <ele>307</ele>
        <time>2026-02-11T14:09:11.000Z</time>
      </trkpt>
      <trkpt lat="43.54673" lon="6.22725">
        <ele>305</ele>
        <time>2026-02-11T14:09:29.000Z</time>
      </trkpt>
      <trkpt lat="43.5468" lon="6.2272">
        <ele>304</ele>
        <time>2026-02-11T14:09:50.000Z</time>
      </trkpt>
      <trkpt lat="43.54686" lon="6.22727">
        <ele>303</ele>
        <time>2026-02-11T14:10:02.000Z</time>
      </trkpt>
      <trkpt lat="43.54693" lon="6.22736">
        <ele>302</ele>
        <time>2026-02-11T14:10:14.000Z</time>
      </trkpt>
      <trkpt lat="43.54698" lon="6.22745">
        <ele>301</ele>
        <time>2026-02-11T14:10:23.000Z</time>
      </trkpt>
      <trkpt lat="43.54698" lon="6.22757">
        <ele>300</ele>
        <time>2026-02-11T14:10:32.000Z</time>
      </trkpt>
      <trkpt lat="43.54696" lon="6.2277">
        <ele>299</ele>
        <time>2026-02-11T14:10:44.000Z</time>
      </trkpt>
      <trkpt lat="43.54698" lon="6.22782">
        <ele>297</ele>
        <time>2026-02-11T14:11:02.000Z</time>
      </trkpt>
      <trkpt lat="43.54704" lon="6.22791">
        <ele>296</ele>
        <time>2026-02-11T14:11:17.000Z</time>
      </trkpt>
      <trkpt lat="43.54713" lon="6.2279">
        <ele>294</ele>
        <time>2026-02-11T14:11:35.000Z</time>
      </trkpt>
      <trkpt lat="43.54719" lon="6.2278">
        <ele>293</ele>
        <time>2026-02-11T14:11:50.000Z</time>
      </trkpt>
      <trkpt lat="43.54728" lon="6.22772">
        <ele>291</ele>
        <time>2026-02-11T14:12:02.000Z</time>
      </trkpt>
      <trkpt lat="43.54738" lon="6.22769">
        <ele>289</ele>
        <time>2026-02-11T14:12:11.000Z</time>
      </trkpt>
      <trkpt lat="43.54749" lon="6.22771">
        <ele>288</ele>
        <time>2026-02-11T14:12:23.000Z</time>
      </trkpt>
      <trkpt lat="43.5476" lon="6.22773">
        <ele>286</ele>
        <time>2026-02-11T14:12:35.000Z</time>
      </trkpt>
      <trkpt lat="43.54768" lon="6.22778">
        <ele>285</ele>
        <time>2026-02-11T14:12:47.000Z</time>
      </trkpt>
      <trkpt lat="43.54775" lon="6.22786">
        <ele>283</ele>
        <time>2026-02-11T14:12:59.000Z</time>
      </trkpt>
      <trkpt lat="43.54783" lon="6.22793">
        <ele>282</ele>
        <time>2026-02-11T14:13:11.000Z</time>
      </trkpt>
      <trkpt lat="43.54793" lon="6.22794">
        <ele>281</ele>
        <time>2026-02-11T14:13:20.000Z</time>
      </trkpt>
      <trkpt lat="43.54803" lon="6.22795">
        <ele>280</ele>
        <time>2026-02-11T14:13:32.000Z</time>
      </trkpt>
      <trkpt lat="43.54808" lon="6.22805">
        <ele>279</ele>
        <time>2026-02-11T14:13:44.000Z</time>
      </trkpt>
      <trkpt lat="43.54814" lon="6.22812">
        <ele>278</ele>
        <time>2026-02-11T14:14:05.000Z</time>
      </trkpt>
      <trkpt lat="43.54824" lon="6.22814">
        <ele>277</ele>
        <time>2026-02-11T14:14:14.000Z</time>
      </trkpt>
      <trkpt lat="43.54834" lon="6.22815">
        <ele>275</ele>
        <time>2026-02-11T14:14:26.000Z</time>
      </trkpt>
      <trkpt lat="43.54844" lon="6.22817">
        <ele>273</ele>
        <time>2026-02-11T14:14:44.000Z</time>
      </trkpt>
      <trkpt lat="43.54853" lon="6.22823">
        <ele>272</ele>
        <time>2026-02-11T14:15:00.000Z</time>
      </trkpt>
      <trkpt lat="43.54862" lon="6.22829">
        <ele>270</ele>
        <time>2026-02-11T14:15:09.000Z</time>
      </trkpt>
      <trkpt lat="43.5487" lon="6.22827">
        <ele>269</ele>
        <time>2026-02-11T14:15:33.000Z</time>
      </trkpt>
      <trkpt lat="43.54879" lon="6.22828">
        <ele>268</ele>
        <time>2026-02-11T14:15:51.000Z</time>
      </trkpt>
      <trkpt lat="43.54887" lon="6.22832">
        <ele>267</ele>
        <time>2026-02-11T14:16:03.000Z</time>
      </trkpt>
      <trkpt lat="43.54896" lon="6.22829">
        <ele>266</ele>
        <time>2026-02-11T14:16:24.000Z</time>
      </trkpt>
      <trkpt lat="43.54905" lon="6.22834">
        <ele>266</ele>
        <time>2026-02-11T14:16:57.000Z</time>
      </trkpt>
      <trkpt lat="43.54912" lon="6.22844">
        <ele>266</ele>
        <time>2026-02-11T14:17:21.000Z</time>
      </trkpt>
      <trkpt lat="43.54918" lon="6.22855">
        <ele>265</ele>
        <time>2026-02-11T14:17:33.000Z</time>
      </trkpt>
      <trkpt lat="43.54924" lon="6.22867">
        <ele>265</ele>
        <time>2026-02-11T14:17:48.000Z</time>
      </trkpt>
      <trkpt lat="43.54931" lon="6.22878">
        <ele>265</ele>
        <time>2026-02-11T14:18:00.000Z</time>
      </trkpt>
      <trkpt lat="43.54938" lon="6.22888">
        <ele>265</ele>
        <time>2026-02-11T14:18:12.000Z</time>
      </trkpt>
      <trkpt lat="43.54945" lon="6.22897">
        <ele>265</ele>
        <time>2026-02-11T14:18:36.000Z</time>
      </trkpt>
      <trkpt lat="43.54952" lon="6.22906">
        <ele>265</ele>
        <time>2026-02-11T14:18:52.000Z</time>
      </trkpt>
      <trkpt lat="43.54961" lon="6.22911">
        <ele>265</ele>
        <time>2026-02-11T14:19:01.000Z</time>
      </trkpt>
      <trkpt lat="43.5497" lon="6.22913">
        <ele>264</ele>
        <time>2026-02-11T14:19:10.000Z</time>
      </trkpt>
      <trkpt lat="43.54978" lon="6.22917">
        <ele>264</ele>
        <time>2026-02-11T14:19:19.000Z</time>
      </trkpt>
      <trkpt lat="43.54987" lon="6.2292">
        <ele>264</ele>
        <time>2026-02-11T14:19:28.000Z</time>
      </trkpt>
      <trkpt lat="43.54996" lon="6.22925">
        <ele>265</ele>
        <time>2026-02-11T14:19:37.000Z</time>
      </trkpt>
      <trkpt lat="43.55004" lon="6.2293">
        <ele>265</ele>
        <time>2026-02-11T14:19:46.000Z</time>
      </trkpt>
      <trkpt lat="43.55013" lon="6.22935">
        <ele>266</ele>
        <time>2026-02-11T14:19:55.000Z</time>
      </trkpt>
      <trkpt lat="43.55022" lon="6.2294">
        <ele>266</ele>
        <time>2026-02-11T14:20:04.000Z</time>
      </trkpt>
      <trkpt lat="43.55032" lon="6.22944">
        <ele>267</ele>
        <time>2026-02-11T14:20:16.000Z</time>
      </trkpt>
      <trkpt lat="43.55042" lon="6.22947">
        <ele>267</ele>
        <time>2026-02-11T14:20:28.000Z</time>
      </trkpt>
      <trkpt lat="43.55051" lon="6.2295">
        <ele>267</ele>
        <time>2026-02-11T14:20:43.000Z</time>
      </trkpt>
      <trkpt lat="43.55059" lon="6.22954">
        <ele>267</ele>
        <time>2026-02-11T14:20:55.000Z</time>
      </trkpt>
      <trkpt lat="43.55068" lon="6.22961">
        <ele>267</ele>
        <time>2026-02-11T14:21:07.000Z</time>
      </trkpt>
      <trkpt lat="43.55078" lon="6.22968">
        <ele>266</ele>
        <time>2026-02-11T14:21:19.000Z</time>
      </trkpt>
      <trkpt lat="43.55086" lon="6.22977">
        <ele>266</ele>
        <time>2026-02-11T14:21:28.000Z</time>
      </trkpt>
      <trkpt lat="43.55094" lon="6.22984">
        <ele>266</ele>
        <time>2026-02-11T14:21:37.000Z</time>
      </trkpt>
      <trkpt lat="43.55102" lon="6.22992">
        <ele>266</ele>
        <time>2026-02-11T14:21:49.000Z</time>
      </trkpt>
      <trkpt lat="43.5511" lon="6.23001">
        <ele>266</ele>
        <time>2026-02-11T14:22:13.000Z</time>
      </trkpt>
      <trkpt lat="43.55117" lon="6.2301">
        <ele>265</ele>
        <time>2026-02-11T14:22:22.000Z</time>
      </trkpt>
      <trkpt lat="43.55125" lon="6.23017">
        <ele>265</ele>
        <time>2026-02-11T14:22:31.000Z</time>
      </trkpt>
      <trkpt lat="43.55133" lon="6.23023">
        <ele>264</ele>
        <time>2026-02-11T14:22:43.000Z</time>
      </trkpt>
      <trkpt lat="43.55141" lon="6.23028">
        <ele>264</ele>
        <time>2026-02-11T14:22:52.000Z</time>
      </trkpt>
      <trkpt lat="43.5515" lon="6.23033">
        <ele>263</ele>
        <time>2026-02-11T14:23:04.000Z</time>
      </trkpt>
      <trkpt lat="43.55159" lon="6.23039">
        <ele>263</ele>
        <time>2026-02-11T14:23:13.000Z</time>
      </trkpt>
      <trkpt lat="43.5517" lon="6.23042">
        <ele>263</ele>
        <time>2026-02-11T14:23:22.000Z</time>
      </trkpt>
      <trkpt lat="43.5518" lon="6.23045">
        <ele>263</ele>
        <time>2026-02-11T14:23:31.000Z</time>
      </trkpt>
      <trkpt lat="43.5519" lon="6.23047">
        <ele>263</ele>
        <time>2026-02-11T14:23:40.000Z</time>
      </trkpt>
      <trkpt lat="43.55202" lon="6.2305">
        <ele>264</ele>
        <time>2026-02-11T14:23:52.000Z</time>
      </trkpt>
      <trkpt lat="43.55212" lon="6.23054">
        <ele>264</ele>
        <time>2026-02-11T14:24:01.000Z</time>
      </trkpt>
      <trkpt lat="43.55221" lon="6.23055">
        <ele>264</ele>
        <time>2026-02-11T14:24:10.000Z</time>
      </trkpt>
      <trkpt lat="43.5523" lon="6.23059">
        <ele>264</ele>
        <time>2026-02-11T14:24:19.000Z</time>
      </trkpt>
      <trkpt lat="43.55241" lon="6.23064">
        <ele>264</ele>
        <time>2026-02-11T14:24:28.000Z</time>
      </trkpt>
      <trkpt lat="43.5525" lon="6.23069">
        <ele>265</ele>
        <time>2026-02-11T14:24:37.000Z</time>
      </trkpt>
      <trkpt lat="43.5526" lon="6.23073">
        <ele>265</ele>
        <time>2026-02-11T14:24:46.000Z</time>
      </trkpt>
      <trkpt lat="43.5527" lon="6.23078">
        <ele>265</ele>
        <time>2026-02-11T14:24:55.000Z</time>
      </trkpt>
      <trkpt lat="43.5528" lon="6.23081">
        <ele>265</ele>
        <time>2026-02-11T14:25:04.000Z</time>
      </trkpt>
      <trkpt lat="43.5529" lon="6.23085">
        <ele>265</ele>
        <time>2026-02-11T14:25:13.000Z</time>
      </trkpt>
      <trkpt lat="43.55301" lon="6.23089">
        <ele>265</ele>
        <time>2026-02-11T14:25:25.000Z</time>
      </trkpt>
      <trkpt lat="43.55311" lon="6.23093">
        <ele>265</ele>
        <time>2026-02-11T14:25:34.000Z</time>
      </trkpt>
      <trkpt lat="43.55321" lon="6.23095">
        <ele>265</ele>
        <time>2026-02-11T14:25:43.000Z</time>
      </trkpt>
      <trkpt lat="43.55331" lon="6.23096">
        <ele>265</ele>
        <time>2026-02-11T14:25:52.000Z</time>
      </trkpt>
      <trkpt lat="43.5534" lon="6.23097">
        <ele>265</ele>
        <time>2026-02-11T14:26:01.000Z</time>
      </trkpt>
      <trkpt lat="43.55351" lon="6.23098">
        <ele>265</ele>
        <time>2026-02-11T14:26:10.000Z</time>
      </trkpt>
      <trkpt lat="43.5536" lon="6.23097">
        <ele>266</ele>
        <time>2026-02-11T14:26:19.000Z</time>
      </trkpt>
      <trkpt lat="43.55369" lon="6.23096">
        <ele>266</ele>
        <time>2026-02-11T14:26:28.000Z</time>
      </trkpt>
      <trkpt lat="43.55379" lon="6.23094">
        <ele>267</ele>
        <time>2026-02-11T14:26:37.000Z</time>
      </trkpt>
      <trkpt lat="43.55391" lon="6.23091">
        <ele>267</ele>
        <time>2026-02-11T14:26:46.000Z</time>
      </trkpt>
      <trkpt lat="43.55402" lon="6.23087">
        <ele>268</ele>
        <time>2026-02-11T14:26:55.000Z</time>
      </trkpt>
      <trkpt lat="43.55412" lon="6.23089">
        <ele>268</ele>
        <time>2026-02-11T14:27:04.000Z</time>
      </trkpt>
      <trkpt lat="43.55422" lon="6.23093">
        <ele>268</ele>
        <time>2026-02-11T14:27:13.000Z</time>
      </trkpt>
      <trkpt lat="43.55431" lon="6.23099">
        <ele>268</ele>
        <time>2026-02-11T14:27:22.000Z</time>
      </trkpt>
      <trkpt lat="43.55441" lon="6.23104">
        <ele>268</ele>
        <time>2026-02-11T14:27:31.000Z</time>
      </trkpt>
      <trkpt lat="43.55451" lon="6.23105">
        <ele>268</ele>
        <time>2026-02-11T14:27:40.000Z</time>
      </trkpt>
      <trkpt lat="43.55461" lon="6.23102">
        <ele>268</ele>
        <time>2026-02-11T14:27:49.000Z</time>
      </trkpt>
      <trkpt lat="43.5547" lon="6.23097">
        <ele>269</ele>
        <time>2026-02-11T14:27:58.000Z</time>
      </trkpt>
      <trkpt lat="43.55479" lon="6.23091">
        <ele>269</ele>
        <time>2026-02-11T14:28:07.000Z</time>
      </trkpt>
      <trkpt lat="43.55488" lon="6.23085">
        <ele>270</ele>
        <time>2026-02-11T14:28:16.000Z</time>
      </trkpt>
      <trkpt lat="43.555" lon="6.23082">
        <ele>271</ele>
        <time>2026-02-11T14:28:25.000Z</time>
      </trkpt>
      <trkpt lat="43.55509" lon="6.23078">
        <ele>271</ele>
        <time>2026-02-11T14:28:34.000Z</time>
      </trkpt>
      <trkpt lat="43.55518" lon="6.23073">
        <ele>272</ele>
        <time>2026-02-11T14:28:43.000Z</time>
      </trkpt>
      <trkpt lat="43.55524" lon="6.23061">
        <ele>272</ele>
        <time>2026-02-11T14:28:55.000Z</time>
      </trkpt>
      <trkpt lat="43.55523" lon="6.23049">
        <ele>273</ele>
        <time>2026-02-11T14:29:04.000Z</time>
      </trkpt>
      <trkpt lat="43.55523" lon="6.23035">
        <ele>274</ele>
        <time>2026-02-11T14:29:13.000Z</time>
      </trkpt>
      <trkpt lat="43.55523" lon="6.23021">
        <ele>275</ele>
        <time>2026-02-11T14:29:22.000Z</time>
      </trkpt>
      <trkpt lat="43.55524" lon="6.23007">
        <ele>275</ele>
        <time>2026-02-11T14:29:31.000Z</time>
      </trkpt>
      <trkpt lat="43.55524" lon="6.22994">
        <ele>276</ele>
        <time>2026-02-11T14:29:40.000Z</time>
      </trkpt>
      <trkpt lat="43.55522" lon="6.22982">
        <ele>277</ele>
        <time>2026-02-11T14:29:49.000Z</time>
      </trkpt>
      <trkpt lat="43.5552" lon="6.22968">
        <ele>277</ele>
        <time>2026-02-11T14:29:58.000Z</time>
      </trkpt>
      <trkpt lat="43.55519" lon="6.22954">
        <ele>278</ele>
        <time>2026-02-11T14:30:07.000Z</time>
      </trkpt>
      <trkpt lat="43.55518" lon="6.2294">
        <ele>278</ele>
        <time>2026-02-11T14:30:16.000Z</time>
      </trkpt>
      <trkpt lat="43.55516" lon="6.22926">
        <ele>279</ele>
        <time>2026-02-11T14:30:25.000Z</time>
      </trkpt>
      <trkpt lat="43.55513" lon="6.22913">
        <ele>279</ele>
        <time>2026-02-11T14:30:34.000Z</time>
      </trkpt>
      <trkpt lat="43.55511" lon="6.22899">
        <ele>280</ele>
        <time>2026-02-11T14:30:43.000Z</time>
      </trkpt>
      <trkpt lat="43.55509" lon="6.22885">
        <ele>281</ele>
        <time>2026-02-11T14:30:52.000Z</time>
      </trkpt>
      <trkpt lat="43.55505" lon="6.2287">
        <ele>282</ele>
        <time>2026-02-11T14:31:01.000Z</time>
      </trkpt>
      <trkpt lat="43.55504" lon="6.22857">
        <ele>283</ele>
        <time>2026-02-11T14:31:10.000Z</time>
      </trkpt>
      <trkpt lat="43.55502" lon="6.22844">
        <ele>285</ele>
        <time>2026-02-11T14:31:19.000Z</time>
      </trkpt>
      <trkpt lat="43.555" lon="6.22832">
        <ele>286</ele>
        <time>2026-02-11T14:31:28.000Z</time>
      </trkpt>
      <trkpt lat="43.55497" lon="6.2282">
        <ele>287</ele>
        <time>2026-02-11T14:31:34.000Z</time>
      </trkpt>
      <trkpt lat="43.55494" lon="6.22808">
        <ele>287</ele>
        <time>2026-02-11T14:31:43.000Z</time>
      </trkpt>
      <trkpt lat="43.55492" lon="6.22795">
        <ele>288</ele>
        <time>2026-02-11T14:31:52.000Z</time>
      </trkpt>
      <trkpt lat="43.5549" lon="6.22782">
        <ele>289</ele>
        <time>2026-02-11T14:32:01.000Z</time>
      </trkpt>
      <trkpt lat="43.55492" lon="6.2277">
        <ele>291</ele>
        <time>2026-02-11T14:33:10.000Z</time>
      </trkpt>
      <trkpt lat="43.55492" lon="6.22757">
        <ele>292</ele>
        <time>2026-02-11T14:33:22.000Z</time>
      </trkpt>
      <trkpt lat="43.55493" lon="6.22744">
        <ele>293</ele>
        <time>2026-02-11T14:34:28.000Z</time>
      </trkpt>
      <trkpt lat="43.55493" lon="6.22731">
        <ele>294</ele>
        <time>2026-02-11T14:35:49.000Z</time>
      </trkpt>
      <trkpt lat="43.55495" lon="6.22718">
        <ele>295</ele>
        <time>2026-02-11T14:36:01.000Z</time>
      </trkpt>
      <trkpt lat="43.55497" lon="6.22705">
        <ele>295</ele>
        <time>2026-02-11T14:36:13.000Z</time>
      </trkpt>
      <trkpt lat="43.55498" lon="6.22691">
        <ele>296</ele>
        <time>2026-02-11T14:36:25.000Z</time>
      </trkpt>
      <trkpt lat="43.55497" lon="6.22678">
        <ele>298</ele>
        <time>2026-02-11T14:36:37.000Z</time>
      </trkpt>
      <trkpt lat="43.55493" lon="6.22666">
        <ele>299</ele>
        <time>2026-02-11T14:36:55.000Z</time>
      </trkpt>
      <trkpt lat="43.5549" lon="6.22652">
        <ele>301</ele>
        <time>2026-02-11T14:37:10.000Z</time>
      </trkpt>
      <trkpt lat="43.5549" lon="6.22639">
        <ele>302</ele>
        <time>2026-02-11T14:37:22.000Z</time>
      </trkpt>
      <trkpt lat="43.55491" lon="6.22624">
        <ele>302</ele>
        <time>2026-02-11T14:37:34.000Z</time>
      </trkpt>
      <trkpt lat="43.55493" lon="6.22611">
        <ele>302</ele>
        <time>2026-02-11T14:37:46.000Z</time>
      </trkpt>
      <trkpt lat="43.55496" lon="6.22598">
        <ele>303</ele>
        <time>2026-02-11T14:37:58.000Z</time>
      </trkpt>
      <trkpt lat="43.55498" lon="6.22584">
        <ele>304</ele>
        <time>2026-02-11T14:38:10.000Z</time>
      </trkpt>
      <trkpt lat="43.555" lon="6.22569">
        <ele>305</ele>
        <time>2026-02-11T14:38:22.000Z</time>
      </trkpt>
      <trkpt lat="43.55499" lon="6.22556">
        <ele>306</ele>
        <time>2026-02-11T14:38:31.000Z</time>
      </trkpt>
      <trkpt lat="43.55498" lon="6.22543">
        <ele>307</ele>
        <time>2026-02-11T14:38:40.000Z</time>
      </trkpt>
      <trkpt lat="43.55497" lon="6.22528">
        <ele>308</ele>
        <time>2026-02-11T14:38:49.000Z</time>
      </trkpt>
      <trkpt lat="43.55498" lon="6.22513">
        <ele>309</ele>
        <time>2026-02-11T14:38:58.000Z</time>
      </trkpt>
      <trkpt lat="43.55499" lon="6.225">
        <ele>309</ele>
        <time>2026-02-11T14:39:07.000Z</time>
      </trkpt>
      <trkpt lat="43.55499" lon="6.22486">
        <ele>310</ele>
        <time>2026-02-11T14:39:16.000Z</time>
      </trkpt>
      <trkpt lat="43.55496" lon="6.22474">
        <ele>310</ele>
        <time>2026-02-11T14:39:25.000Z</time>
      </trkpt>
      <trkpt lat="43.55494" lon="6.22461">
        <ele>311</ele>
        <time>2026-02-11T14:39:34.000Z</time>
      </trkpt>
      <trkpt lat="43.55492" lon="6.22447">
        <ele>311</ele>
        <time>2026-02-11T14:39:43.000Z</time>
      </trkpt>
      <trkpt lat="43.5549" lon="6.22434">
        <ele>312</ele>
        <time>2026-02-11T14:39:52.000Z</time>
      </trkpt>
      <trkpt lat="43.55491" lon="6.22422">
        <ele>313</ele>
        <time>2026-02-11T14:40:01.000Z</time>
      </trkpt>
      <trkpt lat="43.5549" lon="6.2241">
        <ele>314</ele>
        <time>2026-02-11T14:40:22.000Z</time>
      </trkpt>
      <trkpt lat="43.55491" lon="6.22399">
        <ele>315</ele>
        <time>2026-02-11T14:42:43.000Z</time>
      </trkpt>
      <trkpt lat="43.55499" lon="6.2239">
        <ele>316</ele>
        <time>2026-02-11T14:42:58.000Z</time>
      </trkpt>
      <trkpt lat="43.55504" lon="6.2238">
        <ele>318</ele>
        <time>2026-02-11T14:43:10.000Z</time>
      </trkpt>
      <trkpt lat="43.55511" lon="6.22371">
        <ele>319</ele>
        <time>2026-02-11T14:43:19.000Z</time>
      </trkpt>
      <trkpt lat="43.55519" lon="6.22365">
        <ele>321</ele>
        <time>2026-02-11T14:43:31.000Z</time>
      </trkpt>
      <trkpt lat="43.55529" lon="6.22365">
        <ele>322</ele>
        <time>2026-02-11T14:43:43.000Z</time>
      </trkpt>
      <trkpt lat="43.55539" lon="6.22368">
        <ele>324</ele>
        <time>2026-02-11T14:43:55.000Z</time>
      </trkpt>
      <trkpt lat="43.55548" lon="6.22374">
        <ele>325</ele>
        <time>2026-02-11T14:44:10.000Z</time>
      </trkpt>
      <trkpt lat="43.55557" lon="6.22378">
        <ele>326</ele>
        <time>2026-02-11T14:44:22.000Z</time>
      </trkpt>
      <trkpt lat="43.55567" lon="6.22383">
        <ele>327</ele>
        <time>2026-02-11T14:44:34.000Z</time>
      </trkpt>
      <trkpt lat="43.55575" lon="6.22392">
        <ele>329</ele>
        <time>2026-02-11T14:44:43.000Z</time>
      </trkpt>
      <trkpt lat="43.55581" lon="6.22404">
        <ele>330</ele>
        <time>2026-02-11T14:44:55.000Z</time>
      </trkpt>
      <trkpt lat="43.55587" lon="6.22414">
        <ele>331</ele>
        <time>2026-02-11T14:45:04.000Z</time>
      </trkpt>
      <trkpt lat="43.55593" lon="6.22425">
        <ele>332</ele>
        <time>2026-02-11T14:45:13.000Z</time>
      </trkpt>
      <trkpt lat="43.55598" lon="6.22436">
        <ele>333</ele>
        <time>2026-02-11T14:45:22.000Z</time>
      </trkpt>
      <trkpt lat="43.55604" lon="6.22446">
        <ele>334</ele>
        <time>2026-02-11T14:45:31.000Z</time>
      </trkpt>
      <trkpt lat="43.55612" lon="6.22453">
        <ele>335</ele>
        <time>2026-02-11T14:45:40.000Z</time>
      </trkpt>
      <trkpt lat="43.55621" lon="6.22458">
        <ele>335</ele>
        <time>2026-02-11T14:45:49.000Z</time>
      </trkpt>
      <trkpt lat="43.55629" lon="6.22467">
        <ele>335</ele>
        <time>2026-02-11T14:45:58.000Z</time>
      </trkpt>
      <trkpt lat="43.55634" lon="6.22477">
        <ele>336</ele>
        <time>2026-02-11T14:46:07.000Z</time>
      </trkpt>
      <trkpt lat="43.55641" lon="6.22486">
        <ele>336</ele>
        <time>2026-02-11T14:46:16.000Z</time>
      </trkpt>
      <trkpt lat="43.55648" lon="6.22496">
        <ele>336</ele>
        <time>2026-02-11T14:46:25.000Z</time>
      </trkpt>
      <trkpt lat="43.55653" lon="6.22508">
        <ele>337</ele>
        <time>2026-02-11T14:46:34.000Z</time>
      </trkpt>
      <trkpt lat="43.55658" lon="6.22522">
        <ele>338</ele>
        <time>2026-02-11T14:46:43.000Z</time>
      </trkpt>
      <trkpt lat="43.55661" lon="6.22535">
        <ele>338</ele>
        <time>2026-02-11T14:46:52.000Z</time>
      </trkpt>
      <trkpt lat="43.55667" lon="6.22546">
        <ele>338</ele>
        <time>2026-02-11T14:47:04.000Z</time>
      </trkpt>
      <trkpt lat="43.55676" lon="6.22552">
        <ele>339</ele>
        <time>2026-02-11T14:47:13.000Z</time>
      </trkpt>
      <trkpt lat="43.55685" lon="6.22559">
        <ele>339</ele>
        <time>2026-02-11T14:47:22.000Z</time>
      </trkpt>
      <trkpt lat="43.55692" lon="6.22567">
        <ele>339</ele>
        <time>2026-02-11T14:47:31.000Z</time>
      </trkpt>
      <trkpt lat="43.55697" lon="6.22579">
        <ele>339</ele>
        <time>2026-02-11T14:47:40.000Z</time>
      </trkpt>
      <trkpt lat="43.55701" lon="6.22594">
        <ele>339</ele>
        <time>2026-02-11T14:47:49.000Z</time>
      </trkpt>
      <trkpt lat="43.55705" lon="6.2261">
        <ele>339</ele>
        <time>2026-02-11T14:48:01.000Z</time>
      </trkpt>
      <trkpt lat="43.55705" lon="6.22623">
        <ele>340</ele>
        <time>2026-02-11T14:48:10.000Z</time>
      </trkpt>
      <trkpt lat="43.55703" lon="6.22638">
        <ele>340</ele>
        <time>2026-02-11T14:48:22.000Z</time>
      </trkpt>
      <trkpt lat="43.55702" lon="6.22652">
        <ele>341</ele>
        <time>2026-02-11T14:48:31.000Z</time>
      </trkpt>
      <trkpt lat="43.55701" lon="6.22665">
        <ele>342</ele>
        <time>2026-02-11T14:48:40.000Z</time>
      </trkpt>
      <trkpt lat="43.557" lon="6.2268">
        <ele>343</ele>
        <time>2026-02-11T14:48:49.000Z</time>
      </trkpt>
      <trkpt lat="43.55701" lon="6.22694">
        <ele>343</ele>
        <time>2026-02-11T14:48:58.000Z</time>
      </trkpt>
      <trkpt lat="43.55705" lon="6.22706">
        <ele>344</ele>
        <time>2026-02-11T14:49:07.000Z</time>
      </trkpt>
      <trkpt lat="43.55711" lon="6.22715">
        <ele>345</ele>
        <time>2026-02-11T14:49:16.000Z</time>
      </trkpt>
      <trkpt lat="43.55721" lon="6.22716">
        <ele>345</ele>
        <time>2026-02-11T14:49:28.000Z</time>
      </trkpt>
      <trkpt lat="43.55731" lon="6.22715">
        <ele>345</ele>
        <time>2026-02-11T14:49:37.000Z</time>
      </trkpt>
      <trkpt lat="43.55741" lon="6.22715">
        <ele>346</ele>
        <time>2026-02-11T14:49:46.000Z</time>
      </trkpt>
      <trkpt lat="43.5575" lon="6.22715">
        <ele>346</ele>
        <time>2026-02-11T14:49:55.000Z</time>
      </trkpt>
      <trkpt lat="43.55762" lon="6.22714">
        <ele>346</ele>
        <time>2026-02-11T14:50:04.000Z</time>
      </trkpt>
      <trkpt lat="43.55774" lon="6.22716">
        <ele>346</ele>
        <time>2026-02-11T14:50:16.000Z</time>
      </trkpt>
      <trkpt lat="43.55784" lon="6.22719">
        <ele>347</ele>
        <time>2026-02-11T14:50:25.000Z</time>
      </trkpt>
      <trkpt lat="43.55793" lon="6.22723">
        <ele>347</ele>
        <time>2026-02-11T14:50:37.000Z</time>
      </trkpt>
      <trkpt lat="43.55802" lon="6.22728">
        <ele>348</ele>
        <time>2026-02-11T14:54:07.000Z</time>
      </trkpt>
      <trkpt lat="43.55811" lon="6.22735">
        <ele>348</ele>
        <time>2026-02-11T14:54:22.000Z</time>
      </trkpt>
      <trkpt lat="43.5582" lon="6.22741">
        <ele>349</ele>
        <time>2026-02-11T14:54:37.000Z</time>
      </trkpt>
      <trkpt lat="43.55828" lon="6.22749">
        <ele>349</ele>
        <time>2026-02-11T14:54:46.000Z</time>
      </trkpt>
      <trkpt lat="43.55838" lon="6.22755">
        <ele>349</ele>
        <time>2026-02-11T14:54:58.000Z</time>
      </trkpt>
      <trkpt lat="43.55847" lon="6.22762">
        <ele>349</ele>
        <time>2026-02-11T14:55:10.000Z</time>
      </trkpt>
      <trkpt lat="43.55856" lon="6.22767">
        <ele>349</ele>
        <time>2026-02-11T14:55:19.000Z</time>
      </trkpt>
      <trkpt lat="43.55865" lon="6.22771">
        <ele>349</ele>
        <time>2026-02-11T14:55:28.000Z</time>
      </trkpt>
      <trkpt lat="43.55877" lon="6.22773">
        <ele>349</ele>
        <time>2026-02-11T14:55:40.000Z</time>
      </trkpt>
      <trkpt lat="43.55886" lon="6.22771">
        <ele>349</ele>
        <time>2026-02-11T14:55:49.000Z</time>
      </trkpt>
      <trkpt lat="43.55896" lon="6.22768">
        <ele>349</ele>
        <time>2026-02-11T14:55:58.000Z</time>
      </trkpt>
      <trkpt lat="43.55903" lon="6.22759">
        <ele>349</ele>
        <time>2026-02-11T14:56:10.000Z</time>
      </trkpt>
      <trkpt lat="43.5591" lon="6.2275">
        <ele>350</ele>
        <time>2026-02-11T14:56:22.000Z</time>
      </trkpt>
      <trkpt lat="43.5592" lon="6.22745">
        <ele>350</ele>
        <time>2026-02-11T14:56:28.000Z</time>
      </trkpt>
      <trkpt lat="43.55931" lon="6.22748">
        <ele>350</ele>
        <time>2026-02-11T14:56:37.000Z</time>
      </trkpt>
      <trkpt lat="43.55942" lon="6.2275">
        <ele>350</ele>
        <time>2026-02-11T14:56:49.000Z</time>
      </trkpt>
      <trkpt lat="43.55952" lon="6.22751">
        <ele>351</ele>
        <time>2026-02-11T14:56:58.000Z</time>
      </trkpt>
      <trkpt lat="43.55962" lon="6.2275">
        <ele>351</ele>
        <time>2026-02-11T14:57:07.000Z</time>
      </trkpt>
      <trkpt lat="43.55972" lon="6.22753">
        <ele>351</ele>
        <time>2026-02-11T14:57:16.000Z</time>
      </trkpt>
      <trkpt lat="43.55982" lon="6.22755">
        <ele>351</ele>
        <time>2026-02-11T14:57:28.000Z</time>
      </trkpt>
      <trkpt lat="43.55993" lon="6.22756">
        <ele>351</ele>
        <time>2026-02-11T14:57:37.000Z</time>
      </trkpt>
      <trkpt lat="43.56003" lon="6.2276">
        <ele>350</ele>
        <time>2026-02-11T14:57:46.000Z</time>
      </trkpt>
      <trkpt lat="43.56012" lon="6.22766">
        <ele>349</ele>
        <time>2026-02-11T14:57:58.000Z</time>
      </trkpt>
      <trkpt lat="43.56021" lon="6.22773">
        <ele>348</ele>
        <time>2026-02-11T14:58:07.000Z</time>
      </trkpt>
      <trkpt lat="43.5603" lon="6.22777">
        <ele>347</ele>
        <time>2026-02-11T14:58:16.000Z</time>
      </trkpt>
      <trkpt lat="43.56039" lon="6.2278">
        <ele>347</ele>
        <time>2026-02-11T14:58:25.000Z</time>
      </trkpt>
      <trkpt lat="43.56049" lon="6.22779">
        <ele>346</ele>
        <time>2026-02-11T14:58:37.000Z</time>
      </trkpt>
      <trkpt lat="43.56059" lon="6.22778">
        <ele>346</ele>
        <time>2026-02-11T14:58:46.000Z</time>
      </trkpt>
      <trkpt lat="43.56068" lon="6.22775">
        <ele>345</ele>
        <time>2026-02-11T14:58:55.000Z</time>
      </trkpt>
      <trkpt lat="43.56078" lon="6.2277">
        <ele>345</ele>
        <time>2026-02-11T14:59:04.000Z</time>
      </trkpt>
      <trkpt lat="43.56088" lon="6.22766">
        <ele>345</ele>
        <time>2026-02-11T14:59:16.000Z</time>
      </trkpt>
      <trkpt lat="43.56098" lon="6.22762">
        <ele>344</ele>
        <time>2026-02-11T14:59:25.000Z</time>
      </trkpt>
      <trkpt lat="43.56108" lon="6.22755">
        <ele>344</ele>
        <time>2026-02-11T14:59:34.000Z</time>
      </trkpt>
      <trkpt lat="43.56115" lon="6.22746">
        <ele>344</ele>
        <time>2026-02-11T14:59:43.000Z</time>
      </trkpt>
      <trkpt lat="43.56118" lon="6.22734">
        <ele>344</ele>
        <time>2026-02-11T14:59:52.000Z</time>
      </trkpt>
      <trkpt lat="43.56121" lon="6.2272">
        <ele>344</ele>
        <time>2026-02-11T15:00:01.000Z</time>
      </trkpt>
      <trkpt lat="43.56124" lon="6.22707">
        <ele>344</ele>
        <time>2026-02-11T15:00:10.000Z</time>
      </trkpt>
      <trkpt lat="43.56124" lon="6.22694">
        <ele>345</ele>
        <time>2026-02-11T15:00:19.000Z</time>
      </trkpt>
      <trkpt lat="43.56122" lon="6.22678">
        <ele>345</ele>
        <time>2026-02-11T15:00:31.000Z</time>
      </trkpt>
      <trkpt lat="43.56122" lon="6.22664">
        <ele>347</ele>
        <time>2026-02-11T15:00:43.000Z</time>
      </trkpt>
      <trkpt lat="43.56122" lon="6.2265">
        <ele>348</ele>
        <time>2026-02-11T15:00:55.000Z</time>
      </trkpt>
      <trkpt lat="43.56123" lon="6.22637">
        <ele>350</ele>
        <time>2026-02-11T15:01:07.000Z</time>
      </trkpt>
      <trkpt lat="43.5612" lon="6.22625">
        <ele>351</ele>
        <time>2026-02-11T15:01:22.000Z</time>
      </trkpt>
      <trkpt lat="43.56122" lon="6.22613">
        <ele>353</ele>
        <time>2026-02-11T15:01:52.000Z</time>
      </trkpt>
      <trkpt lat="43.56123" lon="6.226">
        <ele>354</ele>
        <time>2026-02-11T15:02:19.000Z</time>
      </trkpt>
      <trkpt lat="43.56116" lon="6.22592">
        <ele>356</ele>
        <time>2026-02-11T15:02:34.000Z</time>
      </trkpt>
      <trkpt lat="43.56107" lon="6.22595">
        <ele>358</ele>
        <time>2026-02-11T15:02:49.000Z</time>
      </trkpt>
      <trkpt lat="43.561" lon="6.22602">
        <ele>360</ele>
        <time>2026-02-11T15:03:04.000Z</time>
      </trkpt>
      <trkpt lat="43.56093" lon="6.22608">
        <ele>361</ele>
        <time>2026-02-11T15:03:22.000Z</time>
      </trkpt>
      <trkpt lat="43.56084" lon="6.22607">
        <ele>361</ele>
        <time>2026-02-11T15:03:34.000Z</time>
      </trkpt>
      <trkpt lat="43.5608" lon="6.22596">
        <ele>362</ele>
        <time>2026-02-11T15:03:52.000Z</time>
      </trkpt>
      <trkpt lat="43.56077" lon="6.22584">
        <ele>363</ele>
        <time>2026-02-11T15:04:10.000Z</time>
      </trkpt>
      <trkpt lat="43.56073" lon="6.22573">
        <ele>364</ele>
        <time>2026-02-11T15:04:37.000Z</time>
      </trkpt>
      <trkpt lat="43.56073" lon="6.22561">
        <ele>365</ele>
        <time>2026-02-11T15:04:49.000Z</time>
      </trkpt>
      <trkpt lat="43.56074" lon="6.22548">
        <ele>366</ele>
        <time>2026-02-11T15:05:01.000Z</time>
      </trkpt>
      <trkpt lat="43.56074" lon="6.22534">
        <ele>367</ele>
        <time>2026-02-11T15:05:13.000Z</time>
      </trkpt>
      <trkpt lat="43.56074" lon="6.22521">
        <ele>368</ele>
        <time>2026-02-11T15:05:25.000Z</time>
      </trkpt>
      <trkpt lat="43.56072" lon="6.22509">
        <ele>369</ele>
        <time>2026-02-11T15:05:34.000Z</time>
      </trkpt>
      <trkpt lat="43.56072" lon="6.22495">
        <ele>370</ele>
        <time>2026-02-11T15:05:46.000Z</time>
      </trkpt>
      <trkpt lat="43.56071" lon="6.2248">
        <ele>370</ele>
        <time>2026-02-11T15:05:58.000Z</time>
      </trkpt>
      <trkpt lat="43.56068" lon="6.22467">
        <ele>371</ele>
        <time>2026-02-11T15:06:07.000Z</time>
      </trkpt>
      <trkpt lat="43.56065" lon="6.22455">
        <ele>371</ele>
        <time>2026-02-11T15:06:19.000Z</time>
      </trkpt>
      <trkpt lat="43.56061" lon="6.22444">
        <ele>372</ele>
        <time>2026-02-11T15:06:31.000Z</time>
      </trkpt>
      <trkpt lat="43.56058" lon="6.22431">
        <ele>373</ele>
        <time>2026-02-11T15:06:43.000Z</time>
      </trkpt>
      <trkpt lat="43.56059" lon="6.22418">
        <ele>374</ele>
        <time>2026-02-11T15:06:55.000Z</time>
      </trkpt>
      <trkpt lat="43.56063" lon="6.22406">
        <ele>375</ele>
        <time>2026-02-11T15:07:07.000Z</time>
      </trkpt>
      <trkpt lat="43.56069" lon="6.22394">
        <ele>375</ele>
        <time>2026-02-11T15:07:22.000Z</time>
      </trkpt>
      <trkpt lat="43.56075" lon="6.22384">
        <ele>375</ele>
        <time>2026-02-11T15:07:31.000Z</time>
      </trkpt>
      <trkpt lat="43.5608" lon="6.22372">
        <ele>375</ele>
        <time>2026-02-11T15:07:43.000Z</time>
      </trkpt>
      <trkpt lat="43.56086" lon="6.2236">
        <ele>375</ele>
        <time>2026-02-11T15:07:52.000Z</time>
      </trkpt>
      <trkpt lat="43.5609" lon="6.22348">
        <ele>375</ele>
        <time>2026-02-11T15:08:04.000Z</time>
      </trkpt>
      <trkpt lat="43.56095" lon="6.22335">
        <ele>376</ele>
        <time>2026-02-11T15:08:16.000Z</time>
      </trkpt>
      <trkpt lat="43.56099" lon="6.22324">
        <ele>377</ele>
        <time>2026-02-11T15:08:25.000Z</time>
      </trkpt>
      <trkpt lat="43.56103" lon="6.22313">
        <ele>377</ele>
        <time>2026-02-11T15:08:34.000Z</time>
      </trkpt>
      <trkpt lat="43.56106" lon="6.22302">
        <ele>378</ele>
        <time>2026-02-11T15:08:46.000Z</time>
      </trkpt>
      <trkpt lat="43.56109" lon="6.2229">
        <ele>379</ele>
        <time>2026-02-11T15:09:10.000Z</time>
      </trkpt>
      <trkpt lat="43.5611" lon="6.22277">
        <ele>379</ele>
        <time>2026-02-11T15:09:52.000Z</time>
      </trkpt>
      <trkpt lat="43.5611" lon="6.22264">
        <ele>380</ele>
        <time>2026-02-11T15:10:10.000Z</time>
      </trkpt>
      <trkpt lat="43.56106" lon="6.22252">
        <ele>380</ele>
        <time>2026-02-11T15:10:25.000Z</time>
      </trkpt>
      <trkpt lat="43.56105" lon="6.2224">
        <ele>381</ele>
        <time>2026-02-11T15:10:34.000Z</time>
      </trkpt>
      <trkpt lat="43.56105" lon="6.22228">
        <ele>382</ele>
        <time>2026-02-11T15:10:43.000Z</time>
      </trkpt>
      <trkpt lat="43.56102" lon="6.22214">
        <ele>383</ele>
        <time>2026-02-11T15:10:55.000Z</time>
      </trkpt>
      <trkpt lat="43.56099" lon="6.22201">
        <ele>384</ele>
        <time>2026-02-11T15:11:10.000Z</time>
      </trkpt>
      <trkpt lat="43.56095" lon="6.22189">
        <ele>385</ele>
        <time>2026-02-11T15:11:22.000Z</time>
      </trkpt>
      <trkpt lat="43.56088" lon="6.2218">
        <ele>386</ele>
        <time>2026-02-11T15:11:34.000Z</time>
      </trkpt>
      <trkpt lat="43.5608" lon="6.22174">
        <ele>387</ele>
        <time>2026-02-11T15:11:49.000Z</time>
      </trkpt>
      <trkpt lat="43.56075" lon="6.22164">
        <ele>388</ele>
        <time>2026-02-11T15:12:01.000Z</time>
      </trkpt>
      <trkpt lat="43.56072" lon="6.22151">
        <ele>389</ele>
        <time>2026-02-11T15:12:13.000Z</time>
      </trkpt>
      <trkpt lat="43.56069" lon="6.22138">
        <ele>390</ele>
        <time>2026-02-11T15:12:25.000Z</time>
      </trkpt>
      <trkpt lat="43.56067" lon="6.22125">
        <ele>391</ele>
        <time>2026-02-11T15:12:49.000Z</time>
      </trkpt>
      <trkpt lat="43.56066" lon="6.22113">
        <ele>391</ele>
        <time>2026-02-11T15:12:58.000Z</time>
      </trkpt>
      <trkpt lat="43.56066" lon="6.22101">
        <ele>392</ele>
        <time>2026-02-11T15:13:07.000Z</time>
      </trkpt>
      <trkpt lat="43.56064" lon="6.22089">
        <ele>393</ele>
        <time>2026-02-11T15:13:16.000Z</time>
      </trkpt>
      <trkpt lat="43.56061" lon="6.22077">
        <ele>394</ele>
        <time>2026-02-11T15:13:28.000Z</time>
      </trkpt>
      <trkpt lat="43.56061" lon="6.22065">
        <ele>394</ele>
        <time>2026-02-11T15:13:43.000Z</time>
      </trkpt>
      <trkpt lat="43.56058" lon="6.22051">
        <ele>395</ele>
        <time>2026-02-11T15:13:55.000Z</time>
      </trkpt>
      <trkpt lat="43.56054" lon="6.2204">
        <ele>396</ele>
        <time>2026-02-11T15:14:13.000Z</time>
      </trkpt>
      <trkpt lat="43.56049" lon="6.22027">
        <ele>397</ele>
        <time>2026-02-11T15:14:25.000Z</time>
      </trkpt>
      <trkpt lat="43.56046" lon="6.22016">
        <ele>398</ele>
        <time>2026-02-11T15:14:37.000Z</time>
      </trkpt>
      <trkpt lat="43.56043" lon="6.22003">
        <ele>399</ele>
        <time>2026-02-11T15:14:49.000Z</time>
      </trkpt>
      <trkpt lat="43.56041" lon="6.21989">
        <ele>401</ele>
        <time>2026-02-11T15:15:01.000Z</time>
      </trkpt>
      <trkpt lat="43.56037" lon="6.21975">
        <ele>402</ele>
        <time>2026-02-11T15:15:16.000Z</time>
      </trkpt>
      <trkpt lat="43.56032" lon="6.21964">
        <ele>404</ele>
        <time>2026-02-11T15:15:34.000Z</time>
      </trkpt>
      <trkpt lat="43.56027" lon="6.21953">
        <ele>405</ele>
        <time>2026-02-11T15:15:43.000Z</time>
      </trkpt>
      <trkpt lat="43.56024" lon="6.2194">
        <ele>407</ele>
        <time>2026-02-11T15:15:55.000Z</time>
      </trkpt>
      <trkpt lat="43.56023" lon="6.21928">
        <ele>408</ele>
        <time>2026-02-11T15:16:07.000Z</time>
      </trkpt>
      <trkpt lat="43.56022" lon="6.21916">
        <ele>410</ele>
        <time>2026-02-11T15:16:19.000Z</time>
      </trkpt>
      <trkpt lat="43.56018" lon="6.21904">
        <ele>411</ele>
        <time>2026-02-11T15:16:34.000Z</time>
      </trkpt>
      <trkpt lat="43.56014" lon="6.21893">
        <ele>413</ele>
        <time>2026-02-11T15:16:52.000Z</time>
      </trkpt>
      <trkpt lat="43.56012" lon="6.2188">
        <ele>415</ele>
        <time>2026-02-11T15:17:10.000Z</time>
      </trkpt>
      <trkpt lat="43.56009" lon="6.21869">
        <ele>418</ele>
        <time>2026-02-11T15:17:25.000Z</time>
      </trkpt>
      <trkpt lat="43.56001" lon="6.21865">
        <ele>420</ele>
        <time>2026-02-11T15:17:58.000Z</time>
      </trkpt>
      <trkpt lat="43.55993" lon="6.21864">
        <ele>423</ele>
        <time>2026-02-11T15:18:19.000Z</time>
      </trkpt>
      <trkpt lat="43.55986" lon="6.21871">
        <ele>425</ele>
        <time>2026-02-11T15:18:58.000Z</time>
      </trkpt>
      <trkpt lat="43.55977" lon="6.21874">
        <ele>428</ele>
        <time>2026-02-11T15:19:37.000Z</time>
      </trkpt>
      <trkpt lat="43.55968" lon="6.21878">
        <ele>431</ele>
        <time>2026-02-11T15:19:49.000Z</time>
      </trkpt>
      <trkpt lat="43.55959" lon="6.21879">
        <ele>434</ele>
        <time>2026-02-11T15:20:34.000Z</time>
      </trkpt>
      <trkpt lat="43.55951" lon="6.21872">
        <ele>437</ele>
        <time>2026-02-11T15:21:04.000Z</time>
      </trkpt>
      <trkpt lat="43.55942" lon="6.21869">
        <ele>440</ele>
        <time>2026-02-11T15:21:19.000Z</time>
      </trkpt>
      <trkpt lat="43.55937" lon="6.21878">
        <ele>442</ele>
        <time>2026-02-11T15:21:55.000Z</time>
      </trkpt>
      <trkpt lat="43.5593" lon="6.21884">
        <ele>444</ele>
        <time>2026-02-11T15:22:16.000Z</time>
      </trkpt>
      <trkpt lat="43.55922" lon="6.21886">
        <ele>446</ele>
        <time>2026-02-11T15:23:10.000Z</time>
      </trkpt>
      <trkpt lat="43.55917" lon="6.21875">
        <ele>448</ele>
        <time>2026-02-11T15:23:28.000Z</time>
      </trkpt>
      <trkpt lat="43.55911" lon="6.21866">
        <ele>450</ele>
        <time>2026-02-11T15:23:46.000Z</time>
      </trkpt>
      <trkpt lat="43.55908" lon="6.21853">
        <ele>452</ele>
        <time>2026-02-11T15:24:16.000Z</time>
      </trkpt>
      <trkpt lat="43.55902" lon="6.21848">
        <ele>453</ele>
        <time>2026-02-11T15:24:46.000Z</time>
      </trkpt>
      <trkpt lat="43.559" lon="6.2186">
        <ele>454</ele>
        <time>2026-02-11T15:25:01.000Z</time>
      </trkpt>
      <trkpt lat="43.55902" lon="6.21874">
        <ele>455</ele>
        <time>2026-02-11T15:25:16.000Z</time>
      </trkpt>
      <trkpt lat="43.55902" lon="6.21888">
        <ele>455</ele>
        <time>2026-02-11T15:25:28.000Z</time>
      </trkpt>
      <trkpt lat="43.55901" lon="6.21902">
        <ele>455</ele>
        <time>2026-02-11T15:25:40.000Z</time>
      </trkpt>
      <trkpt lat="43.55899" lon="6.21916">
        <ele>456</ele>
        <time>2026-02-11T15:25:52.000Z</time>
      </trkpt>
      <trkpt lat="43.55898" lon="6.21931">
        <ele>456</ele>
        <time>2026-02-11T15:26:04.000Z</time>
      </trkpt>
      <trkpt lat="43.55894" lon="6.21946">
        <ele>456</ele>
        <time>2026-02-11T15:26:16.000Z</time>
      </trkpt>
      <trkpt lat="43.5589" lon="6.21958">
        <ele>458</ele>
        <time>2026-02-11T15:26:28.000Z</time>
      </trkpt>
      <trkpt lat="43.55886" lon="6.21971">
        <ele>459</ele>
        <time>2026-02-11T15:26:37.000Z</time>
      </trkpt>
      <trkpt lat="43.55883" lon="6.21985">
        <ele>460</ele>
        <time>2026-02-11T15:26:49.000Z</time>
      </trkpt>
      <trkpt lat="43.55879" lon="6.21998">
        <ele>461</ele>
        <time>2026-02-11T15:27:01.000Z</time>
      </trkpt>
      <trkpt lat="43.55875" lon="6.22013">
        <ele>463</ele>
        <time>2026-02-11T15:27:13.000Z</time>
      </trkpt>
      <trkpt lat="43.55876" lon="6.22027">
        <ele>463</ele>
        <time>2026-02-11T15:27:25.000Z</time>
      </trkpt>
      <trkpt lat="43.5588" lon="6.2204">
        <ele>464</ele>
        <time>2026-02-11T15:27:37.000Z</time>
      </trkpt>
      <trkpt lat="43.55886" lon="6.22051">
        <ele>465</ele>
        <time>2026-02-11T15:27:49.000Z</time>
      </trkpt>
      <trkpt lat="43.55894" lon="6.2206">
        <ele>466</ele>
        <time>2026-02-11T15:28:01.000Z</time>
      </trkpt>
      <trkpt lat="43.55903" lon="6.22065">
        <ele>466</ele>
        <time>2026-02-11T15:28:10.000Z</time>
      </trkpt>
      <trkpt lat="43.55913" lon="6.22071">
        <ele>466</ele>
        <time>2026-02-11T15:28:22.000Z</time>
      </trkpt>
      <trkpt lat="43.5592" lon="6.22079">
        <ele>466</ele>
        <time>2026-02-11T15:28:31.000Z</time>
      </trkpt>
      <trkpt lat="43.55928" lon="6.22087">
        <ele>466</ele>
        <time>2026-02-11T15:28:43.000Z</time>
      </trkpt>
      <trkpt lat="43.55934" lon="6.22097">
        <ele>465</ele>
        <time>2026-02-11T15:28:52.000Z</time>
      </trkpt>
      <trkpt lat="43.55938" lon="6.22109">
        <ele>465</ele>
        <time>2026-02-11T15:29:01.000Z</time>
      </trkpt>
      <trkpt lat="43.55937" lon="6.22123">
        <ele>464</ele>
        <time>2026-02-11T15:29:13.000Z</time>
      </trkpt>
      <trkpt lat="43.55936" lon="6.22136">
        <ele>463</ele>
        <time>2026-02-11T15:29:25.000Z</time>
      </trkpt>
      <trkpt lat="43.55935" lon="6.22148">
        <ele>462</ele>
        <time>2026-02-11T15:29:37.000Z</time>
      </trkpt>
      <trkpt lat="43.55933" lon="6.22162">
        <ele>462</ele>
        <time>2026-02-11T15:29:49.000Z</time>
      </trkpt>
      <trkpt lat="43.55931" lon="6.22176">
        <ele>461</ele>
        <time>2026-02-11T15:29:58.000Z</time>
      </trkpt>
      <trkpt lat="43.5593" lon="6.22192">
        <ele>461</ele>
        <time>2026-02-11T15:30:10.000Z</time>
      </trkpt>
      <trkpt lat="43.55929" lon="6.22206">
        <ele>460</ele>
        <time>2026-02-11T15:30:19.000Z</time>
      </trkpt>
      <trkpt lat="43.55928" lon="6.22222">
        <ele>459</ele>
        <time>2026-02-11T15:30:34.000Z</time>
      </trkpt>
      <trkpt lat="43.55929" lon="6.22237">
        <ele>458</ele>
        <time>2026-02-11T15:30:43.000Z</time>
      </trkpt>
      <trkpt lat="43.5593" lon="6.2225">
        <ele>457</ele>
        <time>2026-02-11T15:30:55.000Z</time>
      </trkpt>
      <trkpt lat="43.55928" lon="6.22265">
        <ele>457</ele>
        <time>2026-02-11T15:31:07.000Z</time>
      </trkpt>
      <trkpt lat="43.55923" lon="6.22277">
        <ele>457</ele>
        <time>2026-02-11T15:31:16.000Z</time>
      </trkpt>
      <trkpt lat="43.55919" lon="6.22288">
        <ele>456</ele>
        <time>2026-02-11T15:31:25.000Z</time>
      </trkpt>
      <trkpt lat="43.55919" lon="6.22301">
        <ele>456</ele>
        <time>2026-02-11T15:31:37.000Z</time>
      </trkpt>
      <trkpt lat="43.55923" lon="6.22313">
        <ele>455</ele>
        <time>2026-02-11T15:31:52.000Z</time>
      </trkpt>
      <trkpt lat="43.55927" lon="6.22325">
        <ele>455</ele>
        <time>2026-02-11T15:32:10.000Z</time>
      </trkpt>
      <trkpt lat="43.55931" lon="6.22336">
        <ele>454</ele>
        <time>2026-02-11T15:32:25.000Z</time>
      </trkpt>
      <trkpt lat="43.55937" lon="6.22345">
        <ele>454</ele>
        <time>2026-02-11T15:32:34.000Z</time>
      </trkpt>
      <trkpt lat="43.55944" lon="6.22356">
        <ele>454</ele>
        <time>2026-02-11T15:32:46.000Z</time>
      </trkpt>
      <trkpt lat="43.55947" lon="6.22366">
        <ele>454</ele>
        <time>2026-02-11T15:33:07.000Z</time>
      </trkpt>
      <trkpt lat="43.55941" lon="6.22358">
        <ele>455</ele>
        <time>2026-02-11T15:37:22.000Z</time>
      </trkpt>
      <trkpt lat="43.55935" lon="6.22348">
        <ele>456</ele>
        <time>2026-02-11T15:37:34.000Z</time>
      </trkpt>
      <trkpt lat="43.55929" lon="6.22337">
        <ele>457</ele>
        <time>2026-02-11T15:37:52.000Z</time>
      </trkpt>
      <trkpt lat="43.55924" lon="6.22324">
        <ele>458</ele>
        <time>2026-02-11T15:38:07.000Z</time>
      </trkpt>
      <trkpt lat="43.5592" lon="6.22311">
        <ele>459</ele>
        <time>2026-02-11T15:38:28.000Z</time>
      </trkpt>
      <trkpt lat="43.55916" lon="6.223">
        <ele>460</ele>
        <time>2026-02-11T15:38:37.000Z</time>
      </trkpt>
      <trkpt lat="43.55911" lon="6.22289">
        <ele>461</ele>
        <time>2026-02-11T15:38:52.000Z</time>
      </trkpt>
      <trkpt lat="43.55906" lon="6.22279">
        <ele>463</ele>
        <time>2026-02-11T15:39:07.000Z</time>
      </trkpt>
      <trkpt lat="43.55901" lon="6.22269">
        <ele>465</ele>
        <time>2026-02-11T15:39:22.000Z</time>
      </trkpt>
      <trkpt lat="43.55897" lon="6.22259">
        <ele>467</ele>
        <time>2026-02-11T15:39:37.000Z</time>
      </trkpt>
      <trkpt lat="43.55893" lon="6.22249">
        <ele>469</ele>
        <time>2026-02-11T15:40:19.000Z</time>
      </trkpt>
      <trkpt lat="43.55886" lon="6.22241">
        <ele>470</ele>
        <time>2026-02-11T15:41:07.000Z</time>
      </trkpt>
      <trkpt lat="43.55882" lon="6.22231">
        <ele>471</ele>
        <time>2026-02-11T15:41:46.000Z</time>
      </trkpt>
      <trkpt lat="43.55886" lon="6.22223">
        <ele>472</ele>
        <time>2026-02-11T15:43:19.000Z</time>
      </trkpt>
      <trkpt lat="43.55886" lon="6.22211">
        <ele>473</ele>
        <time>2026-02-11T15:44:22.000Z</time>
      </trkpt>
      <trkpt lat="43.55882" lon="6.22203">
        <ele>473</ele>
        <time>2026-02-11T15:44:49.000Z</time>
      </trkpt>
      <trkpt lat="43.55877" lon="6.22211">
        <ele>474</ele>
        <time>2026-02-11T15:45:04.000Z</time>
      </trkpt>
      <trkpt lat="43.55879" lon="6.2222">
        <ele>473</ele>
        <time>2026-02-11T15:45:49.000Z</time>
      </trkpt>
      <trkpt lat="43.55876" lon="6.22212">
        <ele>473</ele>
        <time>2026-02-11T15:49:04.000Z</time>
      </trkpt>
      <trkpt lat="43.55878" lon="6.22199">
        <ele>473</ele>
        <time>2026-02-11T15:49:19.000Z</time>
      </trkpt>
      <trkpt lat="43.55882" lon="6.22187">
        <ele>473</ele>
        <time>2026-02-11T15:49:28.000Z</time>
      </trkpt>
      <trkpt lat="43.55884" lon="6.22173">
        <ele>472</ele>
        <time>2026-02-11T15:49:37.000Z</time>
      </trkpt>
      <trkpt lat="43.55885" lon="6.22158">
        <ele>472</ele>
        <time>2026-02-11T15:49:49.000Z</time>
      </trkpt>
      <trkpt lat="43.55886" lon="6.22143">
        <ele>471</ele>
        <time>2026-02-11T15:49:58.000Z</time>
      </trkpt>
      <trkpt lat="43.55887" lon="6.22129">
        <ele>470</ele>
        <time>2026-02-11T15:50:10.000Z</time>
      </trkpt>
      <trkpt lat="43.55891" lon="6.22116">
        <ele>469</ele>
        <time>2026-02-11T15:50:19.000Z</time>
      </trkpt>
      <trkpt lat="43.55898" lon="6.22107">
        <ele>468</ele>
        <time>2026-02-11T15:50:28.000Z</time>
      </trkpt>
      <trkpt lat="43.55907" lon="6.221">
        <ele>466</ele>
        <time>2026-02-11T15:50:40.000Z</time>
      </trkpt>
      <trkpt lat="43.55915" lon="6.22094">
        <ele>465</ele>
        <time>2026-02-11T15:50:52.000Z</time>
      </trkpt>
      <trkpt lat="43.55919" lon="6.22084">
        <ele>464</ele>
        <time>2026-02-11T15:51:04.000Z</time>
      </trkpt>
      <trkpt lat="43.55913" lon="6.22074">
        <ele>464</ele>
        <time>2026-02-11T15:51:19.000Z</time>
      </trkpt>
      <trkpt lat="43.55904" lon="6.22066">
        <ele>463</ele>
        <time>2026-02-11T15:51:28.000Z</time>
      </trkpt>
      <trkpt lat="43.55895" lon="6.22058">
        <ele>462</ele>
        <time>2026-02-11T15:51:37.000Z</time>
      </trkpt>
      <trkpt lat="43.55887" lon="6.22048">
        <ele>462</ele>
        <time>2026-02-11T15:51:46.000Z</time>
      </trkpt>
      <trkpt lat="43.5588" lon="6.22039">
        <ele>461</ele>
        <time>2026-02-11T15:51:55.000Z</time>
      </trkpt>
      <trkpt lat="43.55877" lon="6.22028">
        <ele>460</ele>
        <time>2026-02-11T15:52:04.000Z</time>
      </trkpt>
      <trkpt lat="43.55877" lon="6.22016">
        <ele>459</ele>
        <time>2026-02-11T15:52:13.000Z</time>
      </trkpt>
      <trkpt lat="43.5588" lon="6.22003">
        <ele>459</ele>
        <time>2026-02-11T15:52:22.000Z</time>
      </trkpt>
      <trkpt lat="43.55883" lon="6.21991">
        <ele>458</ele>
        <time>2026-02-11T15:52:31.000Z</time>
      </trkpt>
      <trkpt lat="43.55887" lon="6.2198">
        <ele>457</ele>
        <time>2026-02-11T15:52:40.000Z</time>
      </trkpt>
      <trkpt lat="43.5589" lon="6.21967">
        <ele>456</ele>
        <time>2026-02-11T15:52:49.000Z</time>
      </trkpt>
      <trkpt lat="43.55893" lon="6.21954">
        <ele>455</ele>
        <time>2026-02-11T15:52:58.000Z</time>
      </trkpt>
      <trkpt lat="43.55898" lon="6.2194">
        <ele>454</ele>
        <time>2026-02-11T15:53:10.000Z</time>
      </trkpt>
      <trkpt lat="43.559" lon="6.21926">
        <ele>453</ele>
        <time>2026-02-11T15:53:19.000Z</time>
      </trkpt>
      <trkpt lat="43.55901" lon="6.21911">
        <ele>452</ele>
        <time>2026-02-11T15:53:28.000Z</time>
      </trkpt>
      <trkpt lat="43.55903" lon="6.21895">
        <ele>451</ele>
        <time>2026-02-11T15:53:37.000Z</time>
      </trkpt>
      <trkpt lat="43.55904" lon="6.21881">
        <ele>450</ele>
        <time>2026-02-11T15:53:46.000Z</time>
      </trkpt>
      <trkpt lat="43.55904" lon="6.21867">
        <ele>449</ele>
        <time>2026-02-11T15:53:58.000Z</time>
      </trkpt>
      <trkpt lat="43.55904" lon="6.21853">
        <ele>448</ele>
        <time>2026-02-11T15:54:07.000Z</time>
      </trkpt>
      <trkpt lat="43.55903" lon="6.21839">
        <ele>448</ele>
        <time>2026-02-11T15:54:16.000Z</time>
      </trkpt>
      <trkpt lat="43.55901" lon="6.21825">
        <ele>448</ele>
        <time>2026-02-11T15:54:28.000Z</time>
      </trkpt>
      <trkpt lat="43.55897" lon="6.21813">
        <ele>448</ele>
        <time>2026-02-11T15:54:37.000Z</time>
      </trkpt>
      <trkpt lat="43.55893" lon="6.218">
        <ele>450</ele>
        <time>2026-02-11T15:54:46.000Z</time>
      </trkpt>
      <trkpt lat="43.55892" lon="6.21786">
        <ele>451</ele>
        <time>2026-02-11T15:54:55.000Z</time>
      </trkpt>
      <trkpt lat="43.55892" lon="6.21772">
        <ele>453</ele>
        <time>2026-02-11T15:55:07.000Z</time>
      </trkpt>
      <trkpt lat="43.55894" lon="6.21759">
        <ele>454</ele>
        <time>2026-02-11T15:55:19.000Z</time>
      </trkpt>
      <trkpt lat="43.55896" lon="6.21748">
        <ele>455</ele>
        <time>2026-02-11T15:55:31.000Z</time>
      </trkpt>
      <trkpt lat="43.55898" lon="6.21734">
        <ele>456</ele>
        <time>2026-02-11T15:55:43.000Z</time>
      </trkpt>
      <trkpt lat="43.559" lon="6.21721">
        <ele>457</ele>
        <time>2026-02-11T15:55:55.000Z</time>
      </trkpt>
      <trkpt lat="43.55901" lon="6.21709">
        <ele>458</ele>
        <time>2026-02-11T15:56:04.000Z</time>
      </trkpt>
      <trkpt lat="43.55903" lon="6.21697">
        <ele>459</ele>
        <time>2026-02-11T15:56:16.000Z</time>
      </trkpt>
      <trkpt lat="43.55905" lon="6.21684">
        <ele>459</ele>
        <time>2026-02-11T15:56:25.000Z</time>
      </trkpt>
      <trkpt lat="43.55908" lon="6.2167">
        <ele>460</ele>
        <time>2026-02-11T15:56:34.000Z</time>
      </trkpt>
      <trkpt lat="43.55911" lon="6.21656">
        <ele>460</ele>
        <time>2026-02-11T15:56:43.000Z</time>
      </trkpt>
      <trkpt lat="43.55912" lon="6.21642">
        <ele>461</ele>
        <time>2026-02-11T15:56:55.000Z</time>
      </trkpt>
      <trkpt lat="43.55912" lon="6.21629">
        <ele>461</ele>
        <time>2026-02-11T15:57:04.000Z</time>
      </trkpt>
      <trkpt lat="43.55911" lon="6.21616">
        <ele>461</ele>
        <time>2026-02-11T15:57:13.000Z</time>
      </trkpt>
      <trkpt lat="43.55909" lon="6.21602">
        <ele>462</ele>
        <time>2026-02-11T15:57:22.000Z</time>
      </trkpt>
      <trkpt lat="43.55906" lon="6.2159">
        <ele>462</ele>
        <time>2026-02-11T15:57:31.000Z</time>
      </trkpt>
      <trkpt lat="43.55903" lon="6.21577">
        <ele>462</ele>
        <time>2026-02-11T15:57:40.000Z</time>
      </trkpt>
      <trkpt lat="43.55901" lon="6.21562">
        <ele>462</ele>
        <time>2026-02-11T15:57:49.000Z</time>
      </trkpt>
      <trkpt lat="43.55899" lon="6.2155">
        <ele>463</ele>
        <time>2026-02-11T15:57:58.000Z</time>
      </trkpt>
      <trkpt lat="43.55897" lon="6.21537">
        <ele>463</ele>
        <time>2026-02-11T15:58:07.000Z</time>
      </trkpt>
      <trkpt lat="43.55894" lon="6.21521">
        <ele>464</ele>
        <time>2026-02-11T15:58:16.000Z</time>
      </trkpt>
      <trkpt lat="43.55893" lon="6.21507">
        <ele>466</ele>
        <time>2026-02-11T15:58:25.000Z</time>
      </trkpt>
      <trkpt lat="43.55892" lon="6.21491">
        <ele>467</ele>
        <time>2026-02-11T15:58:37.000Z</time>
      </trkpt>
      <trkpt lat="43.55891" lon="6.21477">
        <ele>468</ele>
        <time>2026-02-11T15:58:46.000Z</time>
      </trkpt>
      <trkpt lat="43.55893" lon="6.21464">
        <ele>468</ele>
        <time>2026-02-11T15:58:55.000Z</time>
      </trkpt>
      <trkpt lat="43.55891" lon="6.2145">
        <ele>468</ele>
        <time>2026-02-11T15:59:58.000Z</time>
      </trkpt>
      <trkpt lat="43.55891" lon="6.21437">
        <ele>468</ele>
        <time>2026-02-11T16:00:07.000Z</time>
      </trkpt>
      <trkpt lat="43.55891" lon="6.21424">
        <ele>467</ele>
        <time>2026-02-11T16:00:16.000Z</time>
      </trkpt>
      <trkpt lat="43.55891" lon="6.21411">
        <ele>467</ele>
        <time>2026-02-11T16:00:25.000Z</time>
      </trkpt>
      <trkpt lat="43.55889" lon="6.21396">
        <ele>466</ele>
        <time>2026-02-11T16:00:34.000Z</time>
      </trkpt>
      <trkpt lat="43.55887" lon="6.21381">
        <ele>465</ele>
        <time>2026-02-11T16:00:43.000Z</time>
      </trkpt>
      <trkpt lat="43.55884" lon="6.21369">
        <ele>464</ele>
        <time>2026-02-11T16:00:49.000Z</time>
      </trkpt>
      <trkpt lat="43.55879" lon="6.21356">
        <ele>464</ele>
        <time>2026-02-11T16:00:58.000Z</time>
      </trkpt>
      <trkpt lat="43.55876" lon="6.21343">
        <ele>463</ele>
        <time>2026-02-11T16:01:07.000Z</time>
      </trkpt>
      <trkpt lat="43.55873" lon="6.21328">
        <ele>463</ele>
        <time>2026-02-11T16:01:16.000Z</time>
      </trkpt>
      <trkpt lat="43.5587" lon="6.21312">
        <ele>462</ele>
        <time>2026-02-11T16:01:25.000Z</time>
      </trkpt>
      <trkpt lat="43.55866" lon="6.21296">
        <ele>462</ele>
        <time>2026-02-11T16:01:34.000Z</time>
      </trkpt>
      <trkpt lat="43.55862" lon="6.2128">
        <ele>462</ele>
        <time>2026-02-11T16:01:44.000Z</time>
      </trkpt>
      <trkpt lat="43.55858" lon="6.21265">
        <ele>462</ele>
        <time>2026-02-11T16:01:53.000Z</time>
      </trkpt>
      <trkpt lat="43.55855" lon="6.21249">
        <ele>462</ele>
        <time>2026-02-11T16:02:02.000Z</time>
      </trkpt>
      <trkpt lat="43.55852" lon="6.21237">
        <ele>462</ele>
        <time>2026-02-11T16:02:08.000Z</time>
      </trkpt>
      <trkpt lat="43.55851" lon="6.2122">
        <ele>461</ele>
        <time>2026-02-11T16:02:17.000Z</time>
      </trkpt>
      <trkpt lat="43.5585" lon="6.21205">
        <ele>460</ele>
        <time>2026-02-11T16:02:26.000Z</time>
      </trkpt>
      <trkpt lat="43.55848" lon="6.21188">
        <ele>460</ele>
        <time>2026-02-11T16:02:35.000Z</time>
      </trkpt>
      <trkpt lat="43.55846" lon="6.21172">
        <ele>459</ele>
        <time>2026-02-11T16:02:44.000Z</time>
      </trkpt>
      <trkpt lat="43.55845" lon="6.21157">
        <ele>459</ele>
        <time>2026-02-11T16:02:53.000Z</time>
      </trkpt>
      <trkpt lat="43.55843" lon="6.21145">
        <ele>459</ele>
        <time>2026-02-11T16:03:02.000Z</time>
      </trkpt>
      <trkpt lat="43.55843" lon="6.21131">
        <ele>458</ele>
        <time>2026-02-11T16:03:11.000Z</time>
      </trkpt>
      <trkpt lat="43.55841" lon="6.21117">
        <ele>458</ele>
        <time>2026-02-11T16:03:23.000Z</time>
      </trkpt>
      <trkpt lat="43.55837" lon="6.21103">
        <ele>458</ele>
        <time>2026-02-11T16:03:35.000Z</time>
      </trkpt>
      <trkpt lat="43.55835" lon="6.2109">
        <ele>458</ele>
        <time>2026-02-11T16:03:44.000Z</time>
      </trkpt>
      <trkpt lat="43.55833" lon="6.21077">
        <ele>458</ele>
        <time>2026-02-11T16:03:53.000Z</time>
      </trkpt>
      <trkpt lat="43.55832" lon="6.21065">
        <ele>458</ele>
        <time>2026-02-11T16:03:59.000Z</time>
      </trkpt>
      <trkpt lat="43.5583" lon="6.21053">
        <ele>458</ele>
        <time>2026-02-11T16:04:05.000Z</time>
      </trkpt>
      <trkpt lat="43.5583" lon="6.21036">
        <ele>457</ele>
        <time>2026-02-11T16:04:14.000Z</time>
      </trkpt>
      <trkpt lat="43.5583" lon="6.21021">
        <ele>457</ele>
        <time>2026-02-11T16:04:23.000Z</time>
      </trkpt>
      <trkpt lat="43.5583" lon="6.21007">
        <ele>456</ele>
        <time>2026-02-11T16:04:32.000Z</time>
      </trkpt>
      <trkpt lat="43.55831" lon="6.20991">
        <ele>455</ele>
        <time>2026-02-11T16:04:41.000Z</time>
      </trkpt>
      <trkpt lat="43.55833" lon="6.20976">
        <ele>455</ele>
        <time>2026-02-11T16:04:50.000Z</time>
      </trkpt>
      <trkpt lat="43.55833" lon="6.20963">
        <ele>454</ele>
        <time>2026-02-11T16:04:56.000Z</time>
      </trkpt>
      <trkpt lat="43.55832" lon="6.20948">
        <ele>454</ele>
        <time>2026-02-11T16:05:05.000Z</time>
      </trkpt>
      <trkpt lat="43.55831" lon="6.20932">
        <ele>453</ele>
        <time>2026-02-11T16:05:14.000Z</time>
      </trkpt>
      <trkpt lat="43.55832" lon="6.20916">
        <ele>453</ele>
        <time>2026-02-11T16:05:23.000Z</time>
      </trkpt>
      <trkpt lat="43.55831" lon="6.20902">
        <ele>452</ele>
        <time>2026-02-11T16:05:32.000Z</time>
      </trkpt>
      <trkpt lat="43.5583" lon="6.20886">
        <ele>451</ele>
        <time>2026-02-11T16:05:41.000Z</time>
      </trkpt>
      <trkpt lat="43.55828" lon="6.2087">
        <ele>450</ele>
        <time>2026-02-11T16:05:50.000Z</time>
      </trkpt>
      <trkpt lat="43.55827" lon="6.20854">
        <ele>450</ele>
        <time>2026-02-11T16:05:59.000Z</time>
      </trkpt>
      <trkpt lat="43.55824" lon="6.2084">
        <ele>449</ele>
        <time>2026-02-11T16:06:08.000Z</time>
      </trkpt>
      <trkpt lat="43.55819" lon="6.20825">
        <ele>449</ele>
        <time>2026-02-11T16:06:17.000Z</time>
      </trkpt>
      <trkpt lat="43.55813" lon="6.20812">
        <ele>449</ele>
        <time>2026-02-11T16:06:26.000Z</time>
      </trkpt>
      <trkpt lat="43.55808" lon="6.208">
        <ele>448</ele>
        <time>2026-02-11T16:06:35.000Z</time>
      </trkpt>
      <trkpt lat="43.55802" lon="6.20787">
        <ele>448</ele>
        <time>2026-02-11T16:06:44.000Z</time>
      </trkpt>
      <trkpt lat="43.55797" lon="6.20773">
        <ele>448</ele>
        <time>2026-02-11T16:06:53.000Z</time>
      </trkpt>
      <trkpt lat="43.55792" lon="6.20761">
        <ele>449</ele>
        <time>2026-02-11T16:07:02.000Z</time>
      </trkpt>
      <trkpt lat="43.55787" lon="6.20749">
        <ele>449</ele>
        <time>2026-02-11T16:07:08.000Z</time>
      </trkpt>
      <trkpt lat="43.55781" lon="6.20735">
        <ele>449</ele>
        <time>2026-02-11T16:07:17.000Z</time>
      </trkpt>
      <trkpt lat="43.55774" lon="6.20724">
        <ele>449</ele>
        <time>2026-02-11T16:07:26.000Z</time>
      </trkpt>
      <trkpt lat="43.55767" lon="6.20716">
        <ele>449</ele>
        <time>2026-02-11T16:07:53.000Z</time>
      </trkpt>
      <trkpt lat="43.55758" lon="6.20714">
        <ele>449</ele>
        <time>2026-02-11T16:08:08.000Z</time>
      </trkpt>
      <trkpt lat="43.55748" lon="6.20717">
        <ele>449</ele>
        <time>2026-02-11T16:08:17.000Z</time>
      </trkpt>
      <trkpt lat="43.55737" lon="6.20718">
        <ele>449</ele>
        <time>2026-02-11T16:08:26.000Z</time>
      </trkpt>
      <trkpt lat="43.55728" lon="6.20715">
        <ele>449</ele>
        <time>2026-02-11T16:08:35.000Z</time>
      </trkpt>
      <trkpt lat="43.55719" lon="6.20707">
        <ele>448</ele>
        <time>2026-02-11T16:08:47.000Z</time>
      </trkpt>
      <trkpt lat="43.55712" lon="6.20698">
        <ele>448</ele>
        <time>2026-02-11T16:08:56.000Z</time>
      </trkpt>
      <trkpt lat="43.55704" lon="6.20691">
        <ele>447</ele>
        <time>2026-02-11T16:09:05.000Z</time>
      </trkpt>
      <trkpt lat="43.55694" lon="6.20684">
        <ele>447</ele>
        <time>2026-02-11T16:09:14.000Z</time>
      </trkpt>
      <trkpt lat="43.55686" lon="6.20679">
        <ele>446</ele>
        <time>2026-02-11T16:09:23.000Z</time>
      </trkpt>
      <trkpt lat="43.55678" lon="6.20673">
        <ele>445</ele>
        <time>2026-02-11T16:09:32.000Z</time>
      </trkpt>
      <trkpt lat="43.5567" lon="6.20665">
        <ele>445</ele>
        <time>2026-02-11T16:09:41.000Z</time>
      </trkpt>
      <trkpt lat="43.55663" lon="6.20656">
        <ele>444</ele>
        <time>2026-02-11T16:09:50.000Z</time>
      </trkpt>
      <trkpt lat="43.55654" lon="6.20648">
        <ele>444</ele>
        <time>2026-02-11T16:09:59.000Z</time>
      </trkpt>
      <trkpt lat="43.55643" lon="6.20643">
        <ele>444</ele>
        <time>2026-02-11T16:10:08.000Z</time>
      </trkpt>
      <trkpt lat="43.55633" lon="6.20641">
        <ele>444</ele>
        <time>2026-02-11T16:10:17.000Z</time>
      </trkpt>
      <trkpt lat="43.55624" lon="6.2064">
        <ele>444</ele>
        <time>2026-02-11T16:10:26.000Z</time>
      </trkpt>
      <trkpt lat="43.55615" lon="6.20639">
        <ele>444</ele>
        <time>2026-02-11T16:10:35.000Z</time>
      </trkpt>
      <trkpt lat="43.55606" lon="6.20635">
        <ele>444</ele>
        <time>2026-02-11T16:10:47.000Z</time>
      </trkpt>
      <trkpt lat="43.55597" lon="6.20629">
        <ele>443</ele>
        <time>2026-02-11T16:10:56.000Z</time>
      </trkpt>
      <trkpt lat="43.55588" lon="6.2062">
        <ele>443</ele>
        <time>2026-02-11T16:11:05.000Z</time>
      </trkpt>
      <trkpt lat="43.5558" lon="6.20611">
        <ele>443</ele>
        <time>2026-02-11T16:11:14.000Z</time>
      </trkpt>
      <trkpt lat="43.55572" lon="6.20602">
        <ele>443</ele>
        <time>2026-02-11T16:11:23.000Z</time>
      </trkpt>
      <trkpt lat="43.55564" lon="6.20593">
        <ele>443</ele>
        <time>2026-02-11T16:11:32.000Z</time>
      </trkpt>
      <trkpt lat="43.55556" lon="6.20583">
        <ele>443</ele>
        <time>2026-02-11T16:11:41.000Z</time>
      </trkpt>
      <trkpt lat="43.5555" lon="6.20572">
        <ele>443</ele>
        <time>2026-02-11T16:11:50.000Z</time>
      </trkpt>
      <trkpt lat="43.55546" lon="6.20559">
        <ele>443</ele>
        <time>2026-02-11T16:11:59.000Z</time>
      </trkpt>
      <trkpt lat="43.55543" lon="6.20545">
        <ele>442</ele>
        <time>2026-02-11T16:12:08.000Z</time>
      </trkpt>
      <trkpt lat="43.55537" lon="6.20531">
        <ele>442</ele>
        <time>2026-02-11T16:12:17.000Z</time>
      </trkpt>
      <trkpt lat="43.55529" lon="6.20519">
        <ele>442</ele>
        <time>2026-02-11T16:12:27.000Z</time>
      </trkpt>
      <trkpt lat="43.55522" lon="6.20507">
        <ele>441</ele>
        <time>2026-02-11T16:12:36.000Z</time>
      </trkpt>
      <trkpt lat="43.55514" lon="6.20496">
        <ele>441</ele>
        <time>2026-02-11T16:12:45.000Z</time>
      </trkpt>
      <trkpt lat="43.55506" lon="6.20486">
        <ele>440</ele>
        <time>2026-02-11T16:12:54.000Z</time>
      </trkpt>
      <trkpt lat="43.55497" lon="6.20479">
        <ele>439</ele>
        <time>2026-02-11T16:13:03.000Z</time>
      </trkpt>
      <trkpt lat="43.55488" lon="6.20472">
        <ele>438</ele>
        <time>2026-02-11T16:13:12.000Z</time>
      </trkpt>
      <trkpt lat="43.5548" lon="6.20464">
        <ele>438</ele>
        <time>2026-02-11T16:13:21.000Z</time>
      </trkpt>
      <trkpt lat="43.55471" lon="6.20455">
        <ele>437</ele>
        <time>2026-02-11T16:13:30.000Z</time>
      </trkpt>
      <trkpt lat="43.55462" lon="6.20446">
        <ele>437</ele>
        <time>2026-02-11T16:13:39.000Z</time>
      </trkpt>
      <trkpt lat="43.55453" lon="6.20439">
        <ele>436</ele>
        <time>2026-02-11T16:13:48.000Z</time>
      </trkpt>
      <trkpt lat="43.55443" lon="6.20434">
        <ele>436</ele>
        <time>2026-02-11T16:13:57.000Z</time>
      </trkpt>
      <trkpt lat="43.55433" lon="6.20429">
        <ele>436</ele>
        <time>2026-02-11T16:14:06.000Z</time>
      </trkpt>
      <trkpt lat="43.55422" lon="6.20425">
        <ele>437</ele>
        <time>2026-02-11T16:14:15.000Z</time>
      </trkpt>
      <trkpt lat="43.55412" lon="6.20421">
        <ele>437</ele>
        <time>2026-02-11T16:14:24.000Z</time>
      </trkpt>
      <trkpt lat="43.55402" lon="6.20416">
        <ele>437</ele>
        <time>2026-02-11T16:14:33.000Z</time>
      </trkpt>
      <trkpt lat="43.55394" lon="6.20411">
        <ele>437</ele>
        <time>2026-02-11T16:14:42.000Z</time>
      </trkpt>
      <trkpt lat="43.55385" lon="6.20407">
        <ele>437</ele>
        <time>2026-02-11T16:14:48.000Z</time>
      </trkpt>
      <trkpt lat="43.55375" lon="6.20402">
        <ele>438</ele>
        <time>2026-02-11T16:14:57.000Z</time>
      </trkpt>
      <trkpt lat="43.55366" lon="6.20398">
        <ele>438</ele>
        <time>2026-02-11T16:15:06.000Z</time>
      </trkpt>
      <trkpt lat="43.55357" lon="6.20393">
        <ele>437</ele>
        <time>2026-02-11T16:15:15.000Z</time>
      </trkpt>
      <trkpt lat="43.55348" lon="6.20387">
        <ele>437</ele>
        <time>2026-02-11T16:15:24.000Z</time>
      </trkpt>
      <trkpt lat="43.55338" lon="6.20384">
        <ele>436</ele>
        <time>2026-02-11T16:15:33.000Z</time>
      </trkpt>
      <trkpt lat="43.55327" lon="6.2038">
        <ele>436</ele>
        <time>2026-02-11T16:15:42.000Z</time>
      </trkpt>
      <trkpt lat="43.55318" lon="6.20375">
        <ele>435</ele>
        <time>2026-02-11T16:15:51.000Z</time>
      </trkpt>
      <trkpt lat="43.55311" lon="6.20368">
        <ele>435</ele>
        <time>2026-02-11T16:15:57.000Z</time>
      </trkpt>
      <trkpt lat="43.55302" lon="6.2036">
        <ele>435</ele>
        <time>2026-02-11T16:16:06.000Z</time>
      </trkpt>
      <trkpt lat="43.55294" lon="6.2035">
        <ele>435</ele>
        <time>2026-02-11T16:16:15.000Z</time>
      </trkpt>
      <trkpt lat="43.55286" lon="6.20341">
        <ele>434</ele>
        <time>2026-02-11T16:16:24.000Z</time>
      </trkpt>
      <trkpt lat="43.55277" lon="6.20332">
        <ele>434</ele>
        <time>2026-02-11T16:16:33.000Z</time>
      </trkpt>
      <trkpt lat="43.55269" lon="6.20323">
        <ele>434</ele>
        <time>2026-02-11T16:16:42.000Z</time>
      </trkpt>
      <trkpt lat="43.5526" lon="6.20313">
        <ele>434</ele>
        <time>2026-02-11T16:16:51.000Z</time>
      </trkpt>
      <trkpt lat="43.5525" lon="6.20305">
        <ele>434</ele>
        <time>2026-02-11T16:17:00.000Z</time>
      </trkpt>
      <trkpt lat="43.5524" lon="6.20298">
        <ele>434</ele>
        <time>2026-02-11T16:17:09.000Z</time>
      </trkpt>
      <trkpt lat="43.55232" lon="6.2029">
        <ele>434</ele>
        <time>2026-02-11T16:17:19.000Z</time>
      </trkpt>
      <trkpt lat="43.55223" lon="6.20282">
        <ele>434</ele>
        <time>2026-02-11T16:17:28.000Z</time>
      </trkpt>
      <trkpt lat="43.55213" lon="6.20276">
        <ele>433</ele>
        <time>2026-02-11T16:17:37.000Z</time>
      </trkpt>
      <trkpt lat="43.55204" lon="6.2027">
        <ele>432</ele>
        <time>2026-02-11T16:17:46.000Z</time>
      </trkpt>
      <trkpt lat="43.55196" lon="6.20265">
        <ele>432</ele>
        <time>2026-02-11T16:17:54.000Z</time>
      </trkpt>
      <trkpt lat="43.55187" lon="6.20258">
        <ele>431</ele>
        <time>2026-02-11T16:18:03.000Z</time>
      </trkpt>
      <trkpt lat="43.55181" lon="6.20248">
        <ele>430</ele>
        <time>2026-02-11T16:18:12.000Z</time>
      </trkpt>
      <trkpt lat="43.55175" lon="6.20239">
        <ele>429</ele>
        <time>2026-02-11T16:18:21.000Z</time>
      </trkpt>
      <trkpt lat="43.55169" lon="6.2023">
        <ele>429</ele>
        <time>2026-02-11T16:18:30.000Z</time>
      </trkpt>
      <trkpt lat="43.55162" lon="6.20222">
        <ele>428</ele>
        <time>2026-02-11T16:18:39.000Z</time>
      </trkpt>
      <trkpt lat="43.55154" lon="6.20212">
        <ele>427</ele>
        <time>2026-02-11T16:18:48.000Z</time>
      </trkpt>
      <trkpt lat="43.55146" lon="6.20203">
        <ele>426</ele>
        <time>2026-02-11T16:18:57.000Z</time>
      </trkpt>
      <trkpt lat="43.55139" lon="6.20193">
        <ele>425</ele>
        <time>2026-02-11T16:19:06.000Z</time>
      </trkpt>
      <trkpt lat="43.55131" lon="6.20184">
        <ele>425</ele>
        <time>2026-02-11T16:19:15.000Z</time>
      </trkpt>
      <trkpt lat="43.55121" lon="6.20176">
        <ele>424</ele>
        <time>2026-02-11T16:19:24.000Z</time>
      </trkpt>
      <trkpt lat="43.55111" lon="6.20172">
        <ele>423</ele>
        <time>2026-02-11T16:19:33.000Z</time>
      </trkpt>
      <trkpt lat="43.55102" lon="6.20169">
        <ele>423</ele>
        <time>2026-02-11T16:19:45.000Z</time>
      </trkpt>
      <trkpt lat="43.55092" lon="6.20165">
        <ele>422</ele>
        <time>2026-02-11T16:20:00.000Z</time>
      </trkpt>
      <trkpt lat="43.55081" lon="6.20167">
        <ele>422</ele>
        <time>2026-02-11T16:20:09.000Z</time>
      </trkpt>
      <trkpt lat="43.55071" lon="6.20165">
        <ele>423</ele>
        <time>2026-02-11T16:20:18.000Z</time>
      </trkpt>
      <trkpt lat="43.5506" lon="6.20163">
        <ele>423</ele>
        <time>2026-02-11T16:20:27.000Z</time>
      </trkpt>
      <trkpt lat="43.55048" lon="6.20164">
        <ele>423</ele>
        <time>2026-02-11T16:20:36.000Z</time>
      </trkpt>
      <trkpt lat="43.55038" lon="6.20167">
        <ele>423</ele>
        <time>2026-02-11T16:20:45.000Z</time>
      </trkpt>
      <trkpt lat="43.55029" lon="6.20167">
        <ele>422</ele>
        <time>2026-02-11T16:20:54.000Z</time>
      </trkpt>
      <trkpt lat="43.55019" lon="6.20167">
        <ele>422</ele>
        <time>2026-02-11T16:21:03.000Z</time>
      </trkpt>
      <trkpt lat="43.55011" lon="6.20167">
        <ele>422</ele>
        <time>2026-02-11T16:21:09.000Z</time>
      </trkpt>
      <trkpt lat="43.55001" lon="6.20167">
        <ele>423</ele>
        <time>2026-02-11T16:21:18.000Z</time>
      </trkpt>
      <trkpt lat="43.54991" lon="6.20166">
        <ele>423</ele>
        <time>2026-02-11T16:21:27.000Z</time>
      </trkpt>
      <trkpt lat="43.54981" lon="6.20163">
        <ele>423</ele>
        <time>2026-02-11T16:21:51.000Z</time>
      </trkpt>
      <trkpt lat="43.54971" lon="6.20163">
        <ele>423</ele>
        <time>2026-02-11T16:22:24.000Z</time>
      </trkpt>
      <trkpt lat="43.5496" lon="6.20164">
        <ele>422</ele>
        <time>2026-02-11T16:22:33.000Z</time>
      </trkpt>
      <trkpt lat="43.54949" lon="6.20164">
        <ele>422</ele>
        <time>2026-02-11T16:22:42.000Z</time>
      </trkpt>
      <trkpt lat="43.54938" lon="6.20163">
        <ele>422</ele>
        <time>2026-02-11T16:22:51.000Z</time>
      </trkpt>
      <trkpt lat="43.54928" lon="6.20161">
        <ele>421</ele>
        <time>2026-02-11T16:23:00.000Z</time>
      </trkpt>
      <trkpt lat="43.54918" lon="6.20157">
        <ele>421</ele>
        <time>2026-02-11T16:23:09.000Z</time>
      </trkpt>
      <trkpt lat="43.54906" lon="6.20154">
        <ele>420</ele>
        <time>2026-02-11T16:23:18.000Z</time>
      </trkpt>
      <trkpt lat="43.54895" lon="6.20152">
        <ele>419</ele>
        <time>2026-02-11T16:23:27.000Z</time>
      </trkpt>
      <trkpt lat="43.54884" lon="6.20146">
        <ele>418</ele>
        <time>2026-02-11T16:23:36.000Z</time>
      </trkpt>
      <trkpt lat="43.54874" lon="6.20141">
        <ele>417</ele>
        <time>2026-02-11T16:23:45.000Z</time>
      </trkpt>
      <trkpt lat="43.54866" lon="6.20136">
        <ele>417</ele>
        <time>2026-02-11T16:23:54.000Z</time>
      </trkpt>
      <trkpt lat="43.54856" lon="6.20129">
        <ele>418</ele>
        <time>2026-02-11T16:24:03.000Z</time>
      </trkpt>
      <trkpt lat="43.54846" lon="6.20124">
        <ele>419</ele>
        <time>2026-02-11T16:24:12.000Z</time>
      </trkpt>
      <trkpt lat="43.54838" lon="6.20124">
        <ele>420</ele>
        <time>2026-02-11T16:24:21.000Z</time>
      </trkpt>
      <trkpt lat="43.54835" lon="6.20137">
        <ele>420</ele>
        <time>2026-02-11T16:24:54.000Z</time>
      </trkpt>
      <trkpt lat="43.54831" lon="6.20148">
        <ele>420</ele>
        <time>2026-02-11T16:25:03.000Z</time>
      </trkpt>
      <trkpt lat="43.54824" lon="6.20158">
        <ele>420</ele>
        <time>2026-02-11T16:25:15.000Z</time>
      </trkpt>
      <trkpt lat="43.54819" lon="6.2017">
        <ele>420</ele>
        <time>2026-02-11T16:25:24.000Z</time>
      </trkpt>
      <trkpt lat="43.54814" lon="6.20184">
        <ele>419</ele>
        <time>2026-02-11T16:25:33.000Z</time>
      </trkpt>
      <trkpt lat="43.54808" lon="6.20196">
        <ele>419</ele>
        <time>2026-02-11T16:25:45.000Z</time>
      </trkpt>
      <trkpt lat="43.54803" lon="6.20207">
        <ele>418</ele>
        <time>2026-02-11T16:25:54.000Z</time>
      </trkpt>
      <trkpt lat="43.54796" lon="6.20215">
        <ele>417</ele>
        <time>2026-02-11T16:26:06.000Z</time>
      </trkpt>
      <trkpt lat="43.5479" lon="6.20228">
        <ele>416</ele>
        <time>2026-02-11T16:26:15.000Z</time>
      </trkpt>
      <trkpt lat="43.54786" lon="6.20241">
        <ele>416</ele>
        <time>2026-02-11T16:26:30.000Z</time>
      </trkpt>
      <trkpt lat="43.5478" lon="6.20253">
        <ele>415</ele>
        <time>2026-02-11T16:27:03.000Z</time>
      </trkpt>
      <trkpt lat="43.54775" lon="6.20264">
        <ele>415</ele>
        <time>2026-02-11T16:27:12.000Z</time>
      </trkpt>
      <trkpt lat="43.5477" lon="6.20276">
        <ele>414</ele>
        <time>2026-02-11T16:27:21.000Z</time>
      </trkpt>
      <trkpt lat="43.54765" lon="6.2029">
        <ele>414</ele>
        <time>2026-02-11T16:27:30.000Z</time>
      </trkpt>
      <trkpt lat="43.54759" lon="6.20303">
        <ele>413</ele>
        <time>2026-02-11T16:27:39.000Z</time>
      </trkpt>
      <trkpt lat="43.54755" lon="6.20314">
        <ele>413</ele>
        <time>2026-02-11T16:27:45.000Z</time>
      </trkpt>
      <trkpt lat="43.54751" lon="6.20326">
        <ele>412</ele>
        <time>2026-02-11T16:27:54.000Z</time>
      </trkpt>
      <trkpt lat="43.54746" lon="6.20338">
        <ele>412</ele>
        <time>2026-02-11T16:28:03.000Z</time>
      </trkpt>
      <trkpt lat="43.54739" lon="6.20347">
        <ele>412</ele>
        <time>2026-02-11T16:28:09.000Z</time>
      </trkpt>
      <trkpt lat="43.54731" lon="6.20354">
        <ele>412</ele>
        <time>2026-02-11T16:28:18.000Z</time>
      </trkpt>
    </trkseg>
  </trk>
</gpx>